Observation data for Van Horn on 06/23/2019      Previous  Date       Current Mesonet Observations  Soil Data  Daily Summary Page  Observations in Plain Language
KVA1 230500Z 16005KT 25/M07 A2994 RMK A01 T02511069  RH  011%=      5-min Rain = 0
KVA1 230501Z 17003KT 25/M07 A2994 RMK A01 T02491070  RH  012%=      5-min Rain = 0
KVA1 230502Z 18002KT 25/M07 A2994 RMK A01 T02481069  RH  012%=      5-min Rain = 0
KVA1 230503Z 17004KT 25/M07 A2994 RMK A01 T02461069  RH  012%=      5-min Rain = 0
KVA1 230504Z 15005KT 25/M07 A2994 RMK A01 T02461071  RH  012%=      5-min Rain = 0
KVA1 230505Z 15006KT 25/M07 A2994 RMK A01 T02461071  RH  012%=      5-min Rain = 0
KVA1 230506Z 15005KT 25/M07 A2994 RMK A01 T02461071  RH  012%=      5-min Rain = 0
KVA1 230507Z 15005KT 25/M07 A2994 RMK A01 T02461070  RH  012%=      5-min Rain = 0
KVA1 230508Z 15005KT 25/M07 A2994 RMK A01 T02461070  RH  012%=      5-min Rain = 0
KVA1 230509Z 15004KT 24/M07 A2994 RMK A01 T02441070  RH  012%=      5-min Rain = 0
KVA1 230510Z 15004KT 24/M07 A2994 RMK A01 T02431070  RH  012%=      5-min Rain = 0
KVA1 230511Z 17004KT 24/M07 A2994 RMK A01 T02431069  RH  012%=      5-min Rain = 0
KVA1 230512Z 20003KT 24/M07 A2994 RMK A01 T02431068  RH  012%=      5-min Rain = 0
KVA1 230513Z 18004KT 24/M07 A2994 RMK A01 T02421069  RH  012%=      5-min Rain = 0
KVA1 230514Z 16004KT 24/M07 A2994 RMK A01 T02411069  RH  012%=      5-min Rain = 0
KVA1 230515Z 14004KT 24/M07 A2994 RMK A01 T02411069  RH  012%=      5-min Rain = 0
KVA1 230516Z 14005KT 24/M07 A2994 RMK A01 T02411070  RH  012%=      5-min Rain = 0
KVA1 230517Z 14005KT 24/M07 A2994 RMK A01 T02411069  RH  012%=      5-min Rain = 0
KVA1 230518Z 16005KT 24/M07 A2994 RMK A01 T02421069  RH  012%=      5-min Rain = 0
KVA1 230519Z 16005KT 24/M07 A2994 RMK A01 T02421068  RH  012%=      5-min Rain = 0
KVA1 230520Z 16005KT 24/M07 A2994 RMK A01 T02441068  RH  012%=      5-min Rain = 0
KVA1 230521Z 15004KT 25/M07 A2994 RMK A01 T02451067  RH  012%=      5-min Rain = 0
KVA1 230522Z 15004KT 25/M07 A2994 RMK A01 T02471066  RH  012%=      5-min Rain = 0
KVA1 230523Z 16004KT 25/M07 A2994 RMK A01 T02491067  RH  012%=      5-min Rain = 0
KVA1 230524Z 16003KT 25/M07 A2994 RMK A01 T02511069  RH  011%=      5-min Rain = 0
KVA1 230525Z 16004KT 25/M07 A2994 RMK A01 T02521070  RH  011%=      5-min Rain = 0
KVA1 230526Z 16004KT 25/M07 A2994 RMK A01 T02531070  RH  011%=      5-min Rain = 0
KVA1 230527Z 17003KT 25/M07 A2994 RMK A01 T02541069  RH  011%=      5-min Rain = 0
KVA1 230528Z 18004KT 25/M07 A2994 RMK A01 T02541067  RH  011%=      5-min Rain = 0
KVA1 230529Z 18004KT 25/M07 A2994 RMK A01 T02531067  RH  012%=      5-min Rain = 0
KVA1 230530Z 18004KT 25/M07 A2995 RMK A01 T02521067  RH  012%=      5-min Rain = 0
KVA1 230531Z 17003KT 25/M07 A2995 RMK A01 T02501068  RH  012%=      5-min Rain = 0
KVA1 230532Z 19002KT 25/M07 A2995 RMK A01 T02491068  RH  012%=      5-min Rain = 0
KVA1 230533Z 18003KT 25/M07 A2995 RMK A01 T02461067  RH  012%=      5-min Rain = 0
KVA1 230534Z 16002KT 24/M07 A2995 RMK A01 T02411068  RH  012%=      5-min Rain = 0
KVA1 230535Z 15002KT 24/M07 A2995 RMK A01 T02381067  RH  013%=      5-min Rain = 0
KVA1 230536Z 16002KT 24/M07 A2995 RMK A01 T02371067  RH  013%=      5-min Rain = 0
KVA1 230537Z 17001KT 24/M07 A2995 RMK A01 T02361068  RH  013%=      5-min Rain = 0
KVA1 230538Z 17002KT 24/M07 A2995 RMK A01 T02351069  RH  013%=      5-min Rain = 0
KVA1 230539Z 18001KT 24/M07 A2995 RMK A01 T02361067  RH  013%=      5-min Rain = 0
KVA1 230540Z 18001KT 24/M07 A2995 RMK A01 T02351067  RH  013%=      5-min Rain = 0
KVA1 230541Z 19001KT 24/M07 A2995 RMK A01 T02351068  RH  013%=      5-min Rain = 0
KVA1 230542Z 19001KT 24/M07 A2995 RMK A01 T02351070  RH  013%=      5-min Rain = 0
KVA1 230543Z 20001KT 24/M07 A2995 RMK A01 T02361070  RH  012%=      5-min Rain = 0
KVA1 230544Z 22001KT 24/M07 A2995 RMK A01 T02371069  RH  012%=      5-min Rain = 0
KVA1 230545Z 22002KT 24/M07 A2995 RMK A01 T02401068  RH  012%=      5-min Rain = 0
KVA1 230546Z 20001KT 24/M07 A2995 RMK A01 T02431069  RH  012%=      5-min Rain = 0
KVA1 230547Z 21001KT 25/M07 A2995 RMK A01 T02451068  RH  012%=      5-min Rain = 0
KVA1 230548Z 22002KT 25/M06 A2995 RMK A01 T02451064  RH  012%=      5-min Rain = 0
KVA1 230549Z 23003KT 24/M06 A2995 RMK A01 T02421059  RH  013%=      5-min Rain = 0
KVA1 230550Z 23002KT 24/M06 A2995 RMK A01 T02391063  RH  013%=      5-min Rain = 0
KVA1 230551Z 23002KT 24/M07 A2995 RMK A01 T02371066  RH  013%=      5-min Rain = 0
KVA1 230552Z 21002KT 24/M07 A2995 RMK A01 T02371066  RH  013%=      5-min Rain = 0
KVA1 230553Z 21002KT 24/M06 A2995 RMK A01 T02371061  RH  013%=      5-min Rain = 0
KVA1 230554Z 21002KT 24/M06 A2995 RMK A01 T02351059  RH  014%=      5-min Rain = 0
KVA1 230555Z 21002KT 23/M06 A2995 RMK A01 T02341061  RH  013%=      5-min Rain = 0
KVA1 230556Z 21003KT 23/M06 A2995 RMK A01 T02331062  RH  013%=      5-min Rain = 0
KVA1 230557Z 21003KT 23/M07 A2995 RMK A01 T02321065  RH  013%=      5-min Rain = 0
KVA1 230558Z 21003KT 23/M06 A2995 RMK A01 T02321064  RH  013%=      5-min Rain = 0
KVA1 230559Z 21003KT 23/M06 A2995 RMK A01 T02311061  RH  014%=      5-min Rain = 0
KVA1 230600Z 20004KT 23/M06 A2995 RMK A01 T02301061  RH  014%=      5-min Rain = 0
KVA1 230601Z 20003KT 23/M06 A2995 RMK A01 T02271062  RH  014%=      5-min Rain = 0
KVA1 230602Z 12004KT 22/M06 A2995 RMK A01 T02241061  RH  014%=      5-min Rain = 0
KVA1 230603Z 12006KT 22/M06 A2995 RMK A01 T02211061  RH  015%=      5-min Rain = 0
KVA1 230604Z 12005KT 22/M06 A2995 RMK A01 T02211062  RH  015%=      5-min Rain = 0
KVA1 230605Z 15003KT 22/M06 A2995 RMK A01 T02201063  RH  014%=      5-min Rain = 0
KVA1 230606Z 15004KT 22/M06 A2995 RMK A01 T02201063  RH  014%=      5-min Rain = 0
KVA1 230607Z 15005KT 22/M06 A2995 RMK A01 T02211064  RH  014%=      5-min Rain = 0
KVA1 230608Z 15005KT 22/M07 A2995 RMK A01 T02221065  RH  014%=      5-min Rain = 0
KVA1 230609Z 16006KT 22/M07 A2996 RMK A01 T02231065  RH  014%=      5-min Rain = 0
KVA1 230610Z 17006KT 22/M07 A2996 RMK A01 T02231065  RH  014%=      5-min Rain = 0
KVA1 230611Z 17006KT 22/M07 A2996 RMK A01 T02221065  RH  014%=      5-min Rain = 0
KVA1 230612Z 17006KT 22/M07 A2996 RMK A01 T02211065  RH  014%=      5-min Rain = 0
KVA1 230613Z 16006KT 22/M07 A2996 RMK A01 T02211065  RH  014%=      5-min Rain = 0
KVA1 230614Z 16005KT 22/M06 A2996 RMK A01 T02211064  RH  014%=      5-min Rain = 0
KVA1 230615Z 16005KT 22/M07 A2996 RMK A01 T02211065  RH  014%=      5-min Rain = 0
KVA1 230616Z 16005KT 22/M06 A2996 RMK A01 T02211064  RH  014%=      5-min Rain = 0
KVA1 230617Z 16005KT 22/M07 A2996 RMK A01 T02211065  RH  014%=      5-min Rain = 0
KVA1 230618Z 16006KT 22/M06 A2996 RMK A01 T02211064  RH  014%=      5-min Rain = 0
KVA1 230619Z 17005KT 22/M06 A2996 RMK A01 T02211064  RH  014%=      5-min Rain = 0
KVA1 230620Z 17004KT 22/M06 A2996 RMK A01 T02221064  RH  014%=      5-min Rain = 0
KVA1 230621Z 17004KT 22/M06 A2996 RMK A01 T02221064  RH  014%=      5-min Rain = 0
KVA1 230622Z 17004KT 22/M06 A2996 RMK A01 T02231064  RH  014%=      5-min Rain = 0
KVA1 230623Z 17004KT 22/M06 A2996 RMK A01 T02231063  RH  014%=      5-min Rain = 0
KVA1 230624Z 18003KT 22/M06 A2996 RMK A01 T02221063  RH  014%=      5-min Rain = 0
KVA1 230625Z 18004KT 22/M06 A2996 RMK A01 T02221062  RH  014%=      5-min Rain = 0
KVA1 230626Z 19004KT 22/M06 A2996 RMK A01 T02221062  RH  014%=      5-min Rain = 0
KVA1 230627Z 20004KT 22/M06 A2996 RMK A01 T02221062  RH  014%=      5-min Rain = 0
KVA1 230628Z 20005KT 22/M06 A2996 RMK A01 T02221062  RH  014%=      5-min Rain = 0
KVA1 230629Z 20005KT 22/M06 A2996 RMK A01 T02231061  RH  014%=      5-min Rain = 0
KVA1 230630Z 20005KT 22/M06 A2995 RMK A01 T02231061  RH  014%=      5-min Rain = 0
KVA1 230631Z 20005KT 22/M06 A2995 RMK A01 T02231062  RH  014%=      5-min Rain = 0
KVA1 230632Z 21005KT 22/M06 A2996 RMK A01 T02231062  RH  014%=      5-min Rain = 0
KVA1 230633Z 21005KT 22/M06 A2996 RMK A01 T02231061  RH  014%=      5-min Rain = 0
KVA1 230634Z 21006KT 22/M06 A2996 RMK A01 T02221061  RH  014%=      5-min Rain = 0
KVA1 230635Z 21006KT 22/M06 A2996 RMK A01 T02211062  RH  014%=      5-min Rain = 0
KVA1 230636Z 21005KT 22/M06 A2996 RMK A01 T02211062  RH  014%=      5-min Rain = 0
KVA1 230637Z 21006KT 22/M06 A2996 RMK A01 T02211062  RH  014%=      5-min Rain = 0
KVA1 230638Z 21007KT 22/M06 A2996 RMK A01 T02211063  RH  014%=      5-min Rain = 0
KVA1 230639Z 21007KT 22/M06 A2996 RMK A01 T02221063  RH  014%=      5-min Rain = 0
KVA1 230640Z 20007KT 22/M06 A2996 RMK A01 T02241062  RH  014%=      5-min Rain = 0
KVA1 230641Z 21006KT 23/M06 A2996 RMK A01 T02261062  RH  014%=      5-min Rain = 0
KVA1 230642Z 21006KT 23/M06 A2996 RMK A01 T02261062  RH  014%=      5-min Rain = 0
KVA1 230643Z 21007KT 23/M06 A2996 RMK A01 T02261062  RH  014%=      5-min Rain = 0
KVA1 230644Z 22007KT 23/M06 A2996 RMK A01 T02261062  RH  014%=      5-min Rain = 0
KVA1 230645Z 21007KT 23/M06 A2996 RMK A01 T02261062  RH  014%=      5-min Rain = 0
KVA1 230646Z 21007KT 23/M06 A2995 RMK A01 T02261062  RH  014%=      5-min Rain = 0
KVA1 230647Z 21007KT 23/M06 A2996 RMK A01 T02271061  RH  014%=      5-min Rain = 0
KVA1 230648Z 21007KT 23/M06 A2996 RMK A01 T02261062  RH  014%=      5-min Rain = 0
KVA1 230649Z 21007KT 23/M06 A2996 RMK A01 T02261062  RH  014%=      5-min Rain = 0
KVA1 230650Z 21007KT 23/M06 A2996 RMK A01 T02261062  RH  014%=      5-min Rain = 0
KVA1 230651Z 22007KT 23/M06 A2996 RMK A01 T02271062  RH  014%=      5-min Rain = 0
KVA1 230652Z 22006KT 23/M06 A2996 RMK A01 T02271062  RH  014%=      5-min Rain = 0
KVA1 230653Z 22006KT 23/M06 A2996 RMK A01 T02271062  RH  014%=      5-min Rain = 0
KVA1 230654Z 22007KT 23/M06 A2996 RMK A01 T02271062  RH  014%=      5-min Rain = 0
KVA1 230655Z 21006KT 23/M06 A2996 RMK A01 T02271061  RH  014%=      5-min Rain = 0
KVA1 230656Z 21006KT 23/M06 A2996 RMK A01 T02271062  RH  014%=      5-min Rain = 0
KVA1 230657Z 21006KT 23/M06 A2996 RMK A01 T02281061  RH  014%=      5-min Rain = 0
KVA1 230658Z 21006KT 23/M06 A2996 RMK A01 T02281061  RH  014%=      5-min Rain = 0
KVA1 230659Z 21006KT 23/M06 A2996 RMK A01 T02271060  RH  014%=      5-min Rain = 0
KVA1 230700Z 21006KT 23/M06 A2996 RMK A01 T02271060  RH  014%=      5-min Rain = 0
KVA1 230701Z 21005KT 23/M06 A2996 RMK A01 T02261060  RH  014%=      5-min Rain = 0
KVA1 230702Z 21005KT 23/M06 A2996 RMK A01 T02261061  RH  014%=      5-min Rain = 0
KVA1 230703Z 21005KT 23/M06 A2996 RMK A01 T02271060  RH  014%=      5-min Rain = 0
KVA1 230704Z 21005KT 23/M06 A2996 RMK A01 T02281059  RH  014%=      5-min Rain = 0
KVA1 230705Z 21005KT 23/M06 A2996 RMK A01 T02281058  RH  014%=      5-min Rain = 0
KVA1 230706Z 21005KT 23/M06 A2996 RMK A01 T02271059  RH  014%=      5-min Rain = 0
KVA1 230707Z 21005KT 23/M06 A2995 RMK A01 T02271058  RH  014%=      5-min Rain = 0
KVA1 230708Z 21005KT 23/M06 A2995 RMK A01 T02261058  RH  015%=      5-min Rain = 0
KVA1 230709Z 22006KT 23/M06 A2995 RMK A01 T02261057  RH  015%=      5-min Rain = 0
KVA1 230710Z 23006KT 23/M06 A2995 RMK A01 T02251058  RH  015%=      5-min Rain = 0
KVA1 230711Z 23005KT 23/M06 A2996 RMK A01 T02261057  RH  015%=      5-min Rain = 0
KVA1 230712Z 23006KT 23/M06 A2996 RMK A01 T02261058  RH  015%=      5-min Rain = 0
KVA1 230713Z 23007KT 23/M06 A2996 RMK A01 T02261058  RH  015%=      5-min Rain = 0
KVA1 230714Z 22007KT 23/M06 A2996 RMK A01 T02271058  RH  014%=      5-min Rain = 0
KVA1 230715Z 23006KT 23/M06 A2996 RMK A01 T02281058  RH  014%=      5-min Rain = 0
KVA1 230716Z 23007KT 23/M06 A2996 RMK A01 T02281059  RH  014%=      5-min Rain = 0
KVA1 230717Z 23006KT 23/M06 A2996 RMK A01 T02301059  RH  014%=      5-min Rain = 0
KVA1 230718Z 23006KT 23/M06 A2996 RMK A01 T02331059  RH  014%=      5-min Rain = 0
KVA1 230719Z 23008KT 23/M06 A2996 RMK A01 T02341059  RH  014%=      5-min Rain = 0
KVA1 230720Z 22008KT 24/M06 A2996 RMK A01 T02361059  RH  013%=      5-min Rain = 0
KVA1 230721Z 23008KT 24/M06 A2996 RMK A01 T02391060  RH  013%=      5-min Rain = 0
KVA1 230722Z 23007KT 24/M06 A2996 RMK A01 T02421060  RH  013%=      5-min Rain = 0
KVA1 230723Z 23007KT 24/M06 A2996 RMK A01 T02441059  RH  013%=      5-min Rain = 0
KVA1 230724Z 23007KT 24/M06 A2996 RMK A01 T02441060  RH  013%=      5-min Rain = 0
KVA1 230725Z 23006KT 24/M06 A2996 RMK A01 T02431060  RH  013%=      5-min Rain = 0
KVA1 230726Z 23007KT 24/M06 A2996 RMK A01 T02421060  RH  013%=      5-min Rain = 0
KVA1 230727Z 23008KT 24/M06 A2996 RMK A01 T02401060  RH  013%=      5-min Rain = 0
KVA1 230728Z 23008KT 24/M06 A2996 RMK A01 T02391061  RH  013%=      5-min Rain = 0
KVA1 230729Z 23007KT 24/M06 A2996 RMK A01 T02391060  RH  013%=      5-min Rain = 0
KVA1 230730Z 23006KT 24/M06 A2996 RMK A01 T02391060  RH  013%=      5-min Rain = 0
KVA1 230731Z 23005KT 24/M06 A2996 RMK A01 T02381060  RH  013%=      5-min Rain = 0
KVA1 230732Z 22006KT 24/M06 A2996 RMK A01 T02361060  RH  013%=      5-min Rain = 0
KVA1 230733Z 22007KT 24/M06 A2996 RMK A01 T02351060  RH  013%=      5-min Rain = 0
KVA1 230734Z 22007KT 24/M06 A2996 RMK A01 T02351060  RH  014%=      5-min Rain = 0
KVA1 230735Z 23007KT 23/M06 A2996 RMK A01 T02331060  RH  014%=      5-min Rain = 0
KVA1 230736Z 23008KT 23/M06 A2996 RMK A01 T02321060  RH  014%=      5-min Rain = 0
KVA1 230737Z 23007KT 23/M06 A2996 RMK A01 T02311060  RH  014%=      5-min Rain = 0
KVA1 230738Z 24006KT 23/M06 A2996 RMK A01 T02301060  RH  014%=      5-min Rain = 0
KVA1 230739Z 23006KT 23/M06 A2996 RMK A01 T02311060  RH  014%=      5-min Rain = 0
KVA1 230740Z 22007KT 23/M06 A2996 RMK A01 T02331060  RH  014%=      5-min Rain = 0
KVA1 230741Z 22007KT 23/M06 A2996 RMK A01 T02331060  RH  014%=      5-min Rain = 0
KVA1 230742Z 23007KT 23/M06 A2996 RMK A01 T02331060  RH  014%=      5-min Rain = 0
KVA1 230743Z 23007KT 23/M06 A2996 RMK A01 T02321060  RH  014%=      5-min Rain = 0
KVA1 230744Z 22007KT 23/M06 A2996 RMK A01 T02321060  RH  014%=      5-min Rain = 0
KVA1 230745Z 22007KT 23/M06 A2996 RMK A01 T02321060  RH  014%=      5-min Rain = 0
KVA1 230746Z 21007KT 23/M06 A2996 RMK A01 T02301060  RH  014%=      5-min Rain = 0
KVA1 230747Z 21007KT 23/M06 A2996 RMK A01 T02301059  RH  014%=      5-min Rain = 0
KVA1 230748Z 21008KT 23/M06 A2996 RMK A01 T02291060  RH  014%=      5-min Rain = 0
KVA1 230749Z 21007KT 23/M06 A2996 RMK A01 T02291060  RH  014%=      5-min Rain = 0
KVA1 230750Z 21007KT 23/M06 A2996 RMK A01 T02281060  RH  014%=      5-min Rain = 0
KVA1 230751Z 20007KT 23/M06 A2996 RMK A01 T02271060  RH  014%=      5-min Rain = 0
KVA1 230752Z 21006KT 23/M06 A2996 RMK A01 T02271060  RH  014%=      5-min Rain = 0
KVA1 230753Z 20008KT 23/M06 A2996 RMK A01 T02281059  RH  014%=      5-min Rain = 0
KVA1 230754Z 20007KT 23/M06 A2996 RMK A01 T02311060  RH  014%=      5-min Rain = 0
KVA1 230755Z 20007KT 24/M06 A2996 RMK A01 T02361059  RH  014%=      5-min Rain = 0
KVA1 230756Z 20007KT 24/M06 A2996 RMK A01 T02371061  RH  013%=      5-min Rain = 0
KVA1 230757Z 20007KT 24/M06 A2996 RMK A01 T02371061  RH  013%=      5-min Rain = 0
KVA1 230758Z 20007KT 24/M06 A2996 RMK A01 T02351062  RH  013%=      5-min Rain = 0
KVA1 230759Z 20006KT 24/M06 A2996 RMK A01 T02371061  RH  013%=      5-min Rain = 0
KVA1 230800Z 20006KT 24/M06 A2996 RMK A01 T02411060  RH  013%=      5-min Rain = 0
KVA1 230801Z 23005KT 24/M06 A2996 RMK A01 T02391061  RH  013%=      5-min Rain = 0
KVA1 230802Z 22006KT 24/M06 A2996 RMK A01 T02361063  RH  013%=      5-min Rain = 0
KVA1 230803Z 22007KT 24/M06 A2996 RMK A01 T02351062  RH  013%=      5-min Rain = 0
KVA1 230804Z 24007KT 24/M06 A2996 RMK A01 T02361060  RH  013%=      5-min Rain = 0
KVA1 230805Z 23010G15KT 24/M06 A2996 RMK A01 T02421057  RH  013%=      5-min Rain = 0
KVA1 230806Z 24007KT 25/M06 A2996 RMK A01 T02501055  RH  013%=      5-min Rain = 0
KVA1 230807Z 23008KT 26/M06 A2996 RMK A01 T02551056  RH  012%=      5-min Rain = 0
KVA1 230808Z 21009KT 25/M06 A2996 RMK A01 T02541059  RH  012%=      5-min Rain = 0
KVA1 230809Z 21007KT 25/M06 A2996 RMK A01 T02491061  RH  012%=      5-min Rain = 0
KVA1 230810Z 22007KT 25/M06 A2996 RMK A01 T02471060  RH  013%=      5-min Rain = 0
KVA1 230811Z 23006KT 25/M06 A2996 RMK A01 T02451059  RH  013%=      5-min Rain = 0
KVA1 230812Z 23006KT 25/M06 A2996 RMK A01 T02461058  RH  013%=      5-min Rain = 0
KVA1 230813Z 23006KT 25/M06 A2996 RMK A01 T02501055  RH  013%=      5-min Rain = 0
KVA1 230814Z 23005KT 25/M06 A2996 RMK A01 T02521055  RH  013%=      5-min Rain = 0
KVA1 230815Z 23006KT 25/M06 A2996 RMK A01 T02521055  RH  013%=      5-min Rain = 0
KVA1 230816Z 23006KT 25/M06 A2996 RMK A01 T02501057  RH  013%=      5-min Rain = 0
KVA1 230817Z 23006KT 25/M06 A2996 RMK A01 T02491056  RH  013%=      5-min Rain = 0
KVA1 230818Z 25006KT 25/M06 A2996 RMK A01 T02491055  RH  013%=      5-min Rain = 0
KVA1 230819Z 24006KT 25/M05 A2996 RMK A01 T02501053  RH  013%=      5-min Rain = 0
KVA1 230820Z 25005KT 25/M05 A2996 RMK A01 T02501053  RH  013%=      5-min Rain = 0
KVA1 230821Z 24006KT 25/M05 A2996 RMK A01 T02501053  RH  013%=      5-min Rain = 0
KVA1 230822Z 25006KT 25/M05 A2996 RMK A01 T02491052  RH  013%=      5-min Rain = 0
KVA1 230823Z 25007KT 25/M05 A2996 RMK A01 T02491051  RH  013%=      5-min Rain = 0
KVA1 230824Z 25006KT 25/M05 A2996 RMK A01 T02511050  RH  013%=      5-min Rain = 0
KVA1 230825Z 25006KT 25/M05 A2996 RMK A01 T02511050  RH  013%=      5-min Rain = 0
KVA1 230826Z 26007KT 25/M05 A2996 RMK A01 T02511049  RH  013%=      5-min Rain = 0
KVA1 230827Z 26007KT 25/M05 A2996 RMK A01 T02511049  RH  013%=      5-min Rain = 0
KVA1 230828Z 26007KT 25/M05 A2996 RMK A01 T02531048  RH  013%=      5-min Rain = 0
KVA1 230829Z 25006KT 25/M05 A2996 RMK A01 T02541047  RH  013%=      5-min Rain = 0
KVA1 230830Z 26006KT 26/M05 A2996 RMK A01 T02551048  RH  013%=      5-min Rain = 0
KVA1 230831Z 25007KT 26/M05 A2996 RMK A01 T02561047  RH  013%=      5-min Rain = 0
KVA1 230832Z 26009KT 26/M05 A2996 RMK A01 T02581046  RH  013%=      5-min Rain = 0
KVA1 230833Z 25007KT 26/M05 A2996 RMK A01 T02611046  RH  013%=      5-min Rain = 0
KVA1 230834Z 26007KT 26/M05 A2996 RMK A01 T02621046  RH  013%=      5-min Rain = 0
KVA1 230835Z 26007KT 26/M05 A2996 RMK A01 T02621046  RH  013%=      5-min Rain = 0
KVA1 230836Z 26006KT 26/M05 A2996 RMK A01 T02621046  RH  013%=      5-min Rain = 0
KVA1 230837Z 26008KT 26/M05 A2996 RMK A01 T02611046  RH  013%=      5-min Rain = 0
KVA1 230838Z 26007KT 26/M05 A2996 RMK A01 T02611046  RH  013%=      5-min Rain = 0
KVA1 230839Z 27010KT 26/M05 A2996 RMK A01 T02621045  RH  013%=      5-min Rain = 0
KVA1 230840Z 26007KT 26/M04 A2996 RMK A01 T02641044  RH  013%=      5-min Rain = 0
KVA1 230841Z 26008KT 27/M05 A2996 RMK A01 T02651045  RH  013%=      5-min Rain = 0
KVA1 230842Z 26008KT 27/M05 A2996 RMK A01 T02651045  RH  013%=      5-min Rain = 0
KVA1 230843Z 26008KT 27/M05 A2996 RMK A01 T02651045  RH  013%=      5-min Rain = 0
KVA1 230844Z 26007KT 27/M05 A2996 RMK A01 T02651045  RH  013%=      5-min Rain = 0
KVA1 230845Z 26006KT 26/M05 A2996 RMK A01 T02631045  RH  013%=      5-min Rain = 0
KVA1 230846Z 25006KT 26/M05 A2996 RMK A01 T02621045  RH  013%=      5-min Rain = 0
KVA1 230847Z 26007KT 26/M05 A2996 RMK A01 T02611045  RH  013%=      5-min Rain = 0
KVA1 230848Z 26007KT 26/M05 A2996 RMK A01 T02601045  RH  013%=      5-min Rain = 0
KVA1 230849Z 26008KT 26/M05 A2996 RMK A01 T02601045  RH  013%=      5-min Rain = 0
KVA1 230850Z 26008KT 26/M05 A2996 RMK A01 T02601045  RH  013%=      5-min Rain = 0
KVA1 230851Z 26007KT 26/M05 A2996 RMK A01 T02611045  RH  013%=      5-min Rain = 0
KVA1 230852Z 26008KT 26/M04 A2996 RMK A01 T02611044  RH  013%=      5-min Rain = 0
KVA1 230853Z 26008KT 26/M05 A2996 RMK A01 T02601045  RH  013%=      5-min Rain = 0
KVA1 230854Z 25009KT 26/M05 A2996 RMK A01 T02591045  RH  013%=      5-min Rain = 0
KVA1 230855Z 25008KT 26/M04 A2996 RMK A01 T02601044  RH  013%=      5-min Rain = 0
KVA1 230856Z 25008KT 26/M04 A2996 RMK A01 T02601044  RH  013%=      5-min Rain = 0
KVA1 230857Z 25007KT 26/M04 A2996 RMK A01 T02601044  RH  013%=      5-min Rain = 0
KVA1 230858Z 25007KT 26/M04 A2996 RMK A01 T02591044  RH  013%=      5-min Rain = 0
KVA1 230859Z 25008KT 26/M04 A2996 RMK A01 T02591044  RH  013%=      5-min Rain = 0
KVA1 230900Z 24007KT 26/M05 A2996 RMK A01 T02581045  RH  013%=      5-min Rain = 0
KVA1 230901Z 24007KT 26/M04 A2996 RMK A01 T02571044  RH  013%=      5-min Rain = 0
KVA1 230902Z 23006KT 26/M04 A2996 RMK A01 T02571044  RH  013%=      5-min Rain = 0
KVA1 230903Z 23007KT 26/M05 A2996 RMK A01 T02551045  RH  013%=      5-min Rain = 0
KVA1 230904Z 22006KT 25/M05 A2996 RMK A01 T02531045  RH  014%=      5-min Rain = 0
KVA1 230905Z 21007KT 25/M05 A2996 RMK A01 T02511046  RH  014%=      5-min Rain = 0
KVA1 230906Z 21006KT 25/M05 A2996 RMK A01 T02481048  RH  014%=      5-min Rain = 0
KVA1 230907Z 21006KT 25/M05 A2996 RMK A01 T02451048  RH  014%=      5-min Rain = 0
KVA1 230908Z 23006KT 24/M05 A2996 RMK A01 T02431048  RH  014%=      5-min Rain = 0
KVA1 230909Z 21006KT 24/M05 A2996 RMK A01 T02441047  RH  014%=      5-min Rain = 0
KVA1 230910Z 20007KT 25/M05 A2996 RMK A01 T02451048  RH  014%=      5-min Rain = 0
KVA1 230911Z 22007KT 24/M05 A2997 RMK A01 T02421049  RH  014%=      5-min Rain = 0
KVA1 230912Z 22006KT 24/M05 A2997 RMK A01 T02401048  RH  014%=      5-min Rain = 0
KVA1 230913Z 21007KT 24/M05 A2997 RMK A01 T02391048  RH  014%=      5-min Rain = 0
KVA1 230914Z 22008KT 24/M05 A2996 RMK A01 T02391048  RH  014%=      5-min Rain = 0
KVA1 230915Z 22006KT 24/M05 A2997 RMK A01 T02381048  RH  015%=      5-min Rain = 0
KVA1 230916Z 25006KT 24/M05 A2997 RMK A01 T02361048  RH  015%=      5-min Rain = 0
KVA1 230917Z 25008KT 24/M05 A2997 RMK A01 T02371047  RH  015%=      5-min Rain = 0
KVA1 230918Z 24006KT 24/M05 A2997 RMK A01 T02411045  RH  015%=      5-min Rain = 0
KVA1 230919Z 24006KT 24/M05 A2997 RMK A01 T02431045  RH  014%=      5-min Rain = 0
KVA1 230920Z 23006KT 25/M04 A2997 RMK A01 T02451044  RH  014%=      5-min Rain = 0
KVA1 230921Z 24006KT 25/M05 A2997 RMK A01 T02461045  RH  014%=      5-min Rain = 0
KVA1 230922Z 24007KT 25/M04 A2997 RMK A01 T02471044  RH  014%=      5-min Rain = 0
KVA1 230923Z 24007KT 25/M05 A2997 RMK A01 T02471045  RH  014%=      5-min Rain = 0
KVA1 230924Z 24007KT 25/M04 A2996 RMK A01 T02491044  RH  014%=      5-min Rain = 0
KVA1 230925Z 24007KT 25/M04 A2997 RMK A01 T02501044  RH  014%=      5-min Rain = 0
KVA1 230926Z 24007KT 25/M04 A2997 RMK A01 T02501044  RH  014%=      5-min Rain = 0
KVA1 230927Z 24007KT 25/M04 A2997 RMK A01 T02501044  RH  014%=      5-min Rain = 0
KVA1 230928Z 25007KT 25/M04 A2997 RMK A01 T02501044  RH  014%=      5-min Rain = 0
KVA1 230929Z 24008KT 25/M04 A2997 RMK A01 T02501044  RH  014%=      5-min Rain = 0
KVA1 230930Z 24007KT 25/M04 A2997 RMK A01 T02511044  RH  014%=      5-min Rain = 0
KVA1 230931Z 25007KT 25/M04 A2997 RMK A01 T02511044  RH  014%=      5-min Rain = 0
KVA1 230932Z 24007KT 25/M04 A2997 RMK A01 T02511044  RH  014%=      5-min Rain = 0
KVA1 230933Z 25008KT 25/M04 A2997 RMK A01 T02511044  RH  014%=      5-min Rain = 0
KVA1 230934Z 24007KT 25/M04 A2997 RMK A01 T02511044  RH  014%=      5-min Rain = 0
KVA1 230935Z 24007KT 25/M04 A2997 RMK A01 T02501043  RH  014%=      5-min Rain = 0
KVA1 230936Z 24006KT 25/M04 A2997 RMK A01 T02501044  RH  014%=      5-min Rain = 0
KVA1 230937Z 24006KT 25/M04 A2997 RMK A01 T02501044  RH  014%=      5-min Rain = 0
KVA1 230938Z 24008KT 25/M04 A2997 RMK A01 T02491044  RH  014%=      5-min Rain = 0
KVA1 230939Z 24008KT 25/M04 A2997 RMK A01 T02501044  RH  014%=      5-min Rain = 0
KVA1 230940Z 24007KT 25/M04 A2997 RMK A01 T02501044  RH  014%=      5-min Rain = 0
KVA1 230941Z 24006KT 25/M04 A2997 RMK A01 T02501044  RH  014%=      5-min Rain = 0
KVA1 230942Z 24006KT 25/M04 A2997 RMK A01 T02501044  RH  014%=      5-min Rain = 0
KVA1 230943Z 23006KT 25/M04 A2997 RMK A01 T02501043  RH  014%=      5-min Rain = 0
KVA1 230944Z 24006KT 25/M04 A2997 RMK A01 T02491044  RH  014%=      5-min Rain = 0
KVA1 230945Z 24006KT 25/M04 A2997 RMK A01 T02481044  RH  014%=      5-min Rain = 0
KVA1 230946Z 24006KT 25/M04 A2997 RMK A01 T02481044  RH  014%=      5-min Rain = 0
KVA1 230947Z 25006KT 25/M04 A2997 RMK A01 T02491044  RH  014%=      5-min Rain = 0
KVA1 230948Z 25008KT 25/M04 A2997 RMK A01 T02491044  RH  014%=      5-min Rain = 0
KVA1 230949Z 25007KT 25/M04 A2997 RMK A01 T02491044  RH  014%=      5-min Rain = 0
KVA1 230950Z 24007KT 25/M04 A2997 RMK A01 T02511044  RH  014%=      5-min Rain = 0
KVA1 230951Z 24006KT 25/M04 A2997 RMK A01 T02511044  RH  014%=      5-min Rain = 0
KVA1 230952Z 24007KT 25/M05 A2997 RMK A01 T02511045  RH  014%=      5-min Rain = 0
KVA1 230953Z 23007KT 25/M05 A2997 RMK A01 T02511045  RH  014%=      5-min Rain = 0
KVA1 230954Z 24006KT 25/M04 A2997 RMK A01 T02511044  RH  014%=      5-min Rain = 0
KVA1 230955Z 25007KT 25/M05 A2997 RMK A01 T02501045  RH  014%=      5-min Rain = 0
KVA1 230956Z 23006KT 25/M05 A2997 RMK A01 T02501046  RH  014%=      5-min Rain = 0
KVA1 230957Z 25009KT 25/M05 A2997 RMK A01 T02501046  RH  014%=      5-min Rain = 0
KVA1 230958Z 24006KT 25/M05 A2997 RMK A01 T02511047  RH  014%=      5-min Rain = 0
KVA1 230959Z 24007KT 25/M05 A2997 RMK A01 T02521046  RH  014%=      5-min Rain = 0
KVA1 231000Z 25010KT 25/M05 A2997 RMK A01 T02521047  RH  013%=      5-min Rain = 0
KVA1 231001Z 26009KT 25/M05 A2997 RMK A01 T02541048  RH  013%=      5-min Rain = 0
KVA1 231002Z 26007KT 25/M05 A2997 RMK A01 T02541049  RH  013%=      5-min Rain = 0
KVA1 231003Z 25010KT 25/M05 A2997 RMK A01 T02541049  RH  013%=      5-min Rain = 0
KVA1 231004Z 25009G15KT 25/M05 A2997 RMK A01 T02541049  RH  013%=      5-min Rain = 0
KVA1 231005Z 26008KT 25/M05 A2997 RMK A01 T02531050  RH  013%=      5-min Rain = 0
KVA1 231006Z 25007KT 25/M05 A2997 RMK A01 T02531051  RH  013%=      5-min Rain = 0
KVA1 231007Z 24009KT 25/M05 A2997 RMK A01 T02511051  RH  013%=      5-min Rain = 0
KVA1 231008Z 26010KT 25/M05 A2997 RMK A01 T02501051  RH  013%=      5-min Rain = 0
KVA1 231009Z 25008KT 25/M05 A2997 RMK A01 T02501052  RH  013%=      5-min Rain = 0
KVA1 231010Z 25008KT 25/M05 A2998 RMK A01 T02501052  RH  013%=      5-min Rain = 0
KVA1 231011Z 25009KT 25/M05 A2998 RMK A01 T02491052  RH  013%=      5-min Rain = 0
KVA1 231012Z 24008KT 25/M05 A2997 RMK A01 T02491053  RH  013%=      5-min Rain = 0
KVA1 231013Z 24007KT 25/M05 A2998 RMK A01 T02491052  RH  013%=      5-min Rain = 0
KVA1 231014Z 25011G16KT 25/M05 A2997 RMK A01 T02501053  RH  013%=      5-min Rain = 0
KVA1 231015Z 25007KT 25/M05 A2998 RMK A01 T02511054  RH  013%=      5-min Rain = 0
KVA1 231016Z 25008KT 25/M06 A2998 RMK A01 T02511055  RH  013%=      5-min Rain = 0
KVA1 231017Z 25009KT 25/M06 A2998 RMK A01 T02521056  RH  013%=      5-min Rain = 0
KVA1 231018Z 24008KT 25/M06 A2998 RMK A01 T02531055  RH  013%=      5-min Rain = 0
KVA1 231019Z 25007G12KT 25/M06 A2997 RMK A01 T02521055  RH  013%=      5-min Rain = 0
KVA1 231020Z 26009KT 25/M06 A2998 RMK A01 T02521057  RH  013%=      5-min Rain = 0
KVA1 231021Z 25008KT 25/M06 A2998 RMK A01 T02521057  RH  012%=      5-min Rain = 0
KVA1 231022Z 25008KT 25/M06 A2998 RMK A01 T02521058  RH  012%=      5-min Rain = 0
KVA1 231023Z 24010KT 25/M06 A2998 RMK A01 T02521058  RH  012%=      5-min Rain = 0
KVA1 231024Z 24007KT 25/M06 A2998 RMK A01 T02511059  RH  012%=      5-min Rain = 0
KVA1 231025Z 24008KT 25/M06 A2998 RMK A01 T02501058  RH  012%=      5-min Rain = 0
KVA1 231026Z 24009KT 25/M06 A2998 RMK A01 T02501059  RH  012%=      5-min Rain = 0
KVA1 231027Z 24008KT 25/M06 A2998 RMK A01 T02511059  RH  012%=      5-min Rain = 0
KVA1 231028Z 23008KT 25/M06 A2998 RMK A01 T02511060  RH  012%=      5-min Rain = 0
KVA1 231029Z 24009G14KT 25/M06 A2998 RMK A01 T02511060  RH  012%=      5-min Rain = 0
KVA1 231030Z 22010KT 25/M06 A2998 RMK A01 T02521060  RH  012%=      5-min Rain = 0
KVA1 231031Z 20010KT 25/M06 A2998 RMK A01 T02531060  RH  012%=      5-min Rain = 0
KVA1 231032Z 23012KT 25/M06 A2998 RMK A01 T02531059  RH  012%=      5-min Rain = 0
KVA1 231033Z 22011KT 25/M06 A2998 RMK A01 T02531061  RH  012%=      5-min Rain = 0
KVA1 231034Z 22011KT 25/M06 A2998 RMK A01 T02541062  RH  012%=      5-min Rain = 0
KVA1 231035Z 23007KT 26/M06 A2998 RMK A01 T02551061  RH  012%=      5-min Rain = 0
KVA1 231036Z 22007KT 25/M06 A2998 RMK A01 T02531060  RH  012%=      5-min Rain = 0
KVA1 231037Z 22009KT 25/M06 A2998 RMK A01 T02511060  RH  012%=      5-min Rain = 0
KVA1 231038Z 22009KT 25/M06 A2998 RMK A01 T02511061  RH  012%=      5-min Rain = 0
KVA1 231039Z 22007KT 25/M06 A2998 RMK A01 T02511063  RH  012%=      5-min Rain = 0
KVA1 231040Z 23009KT 25/M06 A2998 RMK A01 T02521062  RH  012%=      5-min Rain = 0
KVA1 231041Z 23008G13KT 25/M06 A2998 RMK A01 T02511064  RH  012%=      5-min Rain = 0
KVA1 231042Z 24006KT 25/M06 A2998 RMK A01 T02521062  RH  012%=      5-min Rain = 0
KVA1 231043Z 24006KT 25/M06 A2998 RMK A01 T02501061  RH  012%=      5-min Rain = 0
KVA1 231044Z 24007KT 25/M06 A2998 RMK A01 T02481064  RH  012%=      5-min Rain = 0
KVA1 231045Z 25007KT 25/M07 A2998 RMK A01 T02501065  RH  012%=      5-min Rain = 0
KVA1 231046Z 24005KT 25/M07 A2998 RMK A01 T02521065  RH  012%=      5-min Rain = 0
KVA1 231047Z 25005KT 25/M06 A2998 RMK A01 T02511064  RH  012%=      5-min Rain = 0
KVA1 231048Z 25004KT 25/M07 A2998 RMK A01 T02511065  RH  012%=      5-min Rain = 0
KVA1 231049Z 25006KT 25/M07 A2998 RMK A01 T02511065  RH  012%=      5-min Rain = 0
KVA1 231050Z 24006KT 25/M07 A2999 RMK A01 T02511066  RH  012%=      5-min Rain = 0
KVA1 231051Z 26007KT 25/M07 A2999 RMK A01 T02511066  RH  012%=      5-min Rain = 0
KVA1 231052Z 26007KT 25/M07 A2999 RMK A01 T02501066  RH  012%=      5-min Rain = 0
KVA1 231053Z 26007KT 25/M07 A2999 RMK A01 T02491067  RH  012%=      5-min Rain = 0
KVA1 231054Z 27008KT 25/M07 A2999 RMK A01 T02491066  RH  012%=      5-min Rain = 0
KVA1 231055Z 26007KT 25/M07 A2999 RMK A01 T02491067  RH  012%=      5-min Rain = 0
KVA1 231056Z 26006KT 25/M07 A2999 RMK A01 T02481067  RH  012%=      5-min Rain = 0
KVA1 231057Z 26006KT 25/M07 A2999 RMK A01 T02481066  RH  012%=      5-min Rain = 0
KVA1 231058Z 27006KT 25/M07 A2999 RMK A01 T02471067  RH  012%=      5-min Rain = 0
KVA1 231059Z 27006KT 25/M07 A2999 RMK A01 T02471067  RH  012%=      5-min Rain = 0
KVA1 231100Z 27007KT 25/M07 A2999 RMK A01 T02461067  RH  012%=      5-min Rain = 0
KVA1 231101Z 27008KT 25/M07 A2999 RMK A01 T02461067  RH  012%=      5-min Rain = 0
KVA1 231102Z 27007KT 25/M07 A2999 RMK A01 T02461067  RH  012%=      5-min Rain = 0
KVA1 231103Z 26007KT 25/M07 A2999 RMK A01 T02471067  RH  012%=      5-min Rain = 0
KVA1 231104Z 26008KT 25/M07 A2999 RMK A01 T02461067  RH  012%=      5-min Rain = 0
KVA1 231105Z 26007KT 25/M07 A2999 RMK A01 T02451068  RH  012%=      5-min Rain = 0
KVA1 231106Z 25007KT 25/M07 A2999 RMK A01 T02451068  RH  012%=      5-min Rain = 0
KVA1 231107Z 26006KT 25/M07 A2999 RMK A01 T02451067  RH  012%=      5-min Rain = 0
KVA1 231108Z 26006KT 24/M07 A2999 RMK A01 T02441068  RH  012%=      5-min Rain = 0
KVA1 231109Z 26008KT 24/M07 A2999 RMK A01 T02431068  RH  012%=      5-min Rain = 0
KVA1 231110Z 26007KT 24/M07 A2999 RMK A01 T02431068  RH  012%=      5-min Rain = 0
KVA1 231111Z 26006KT 24/M07 A2999 RMK A01 T02431069  RH  012%=      5-min Rain = 0
KVA1 231112Z 26007KT 24/M07 A2999 RMK A01 T02431068  RH  012%=      5-min Rain = 0
KVA1 231113Z 25007KT 24/M07 A2999 RMK A01 T02421069  RH  012%=      5-min Rain = 0
KVA1 231114Z 26007KT 24/M07 A2999 RMK A01 T02421069  RH  012%=      5-min Rain = 0
KVA1 231115Z 26007KT 24/M07 A2999 RMK A01 T02411068  RH  012%=      5-min Rain = 0
KVA1 231116Z 26007KT 24/M07 A2999 RMK A01 T02411069  RH  012%=      5-min Rain = 0
KVA1 231117Z 26007KT 24/M07 A2999 RMK A01 T02431069  RH  012%=      5-min Rain = 0
KVA1 231118Z 26008KT 24/M07 A2999 RMK A01 T02421069  RH  012%=      5-min Rain = 0
KVA1 231119Z 26009KT 24/M07 A2999 RMK A01 T02421069  RH  012%=      5-min Rain = 0
KVA1 231120Z 26008KT 24/M07 A2999 RMK A01 T02431069  RH  012%=      5-min Rain = 0
KVA1 231121Z 26010KT 24/M07 A2999 RMK A01 T02431069  RH  012%=      5-min Rain = 0
KVA1 231122Z 26010KT 24/M07 A2999 RMK A01 T02431070  RH  012%=      5-min Rain = 0
KVA1 231123Z 26009KT 24/M07 A2999 RMK A01 T02441070  RH  012%=      5-min Rain = 0
KVA1 231124Z 26009KT 25/M07 A2999 RMK A01 T02451070  RH  012%=      5-min Rain = 0
KVA1 231125Z 26010KT 24/M07 A2999 RMK A01 T02441071  RH  012%=      5-min Rain = 0
KVA1 231126Z 26009KT 24/M07 A2999 RMK A01 T02441071  RH  012%=      5-min Rain = 0
KVA1 231127Z 26008KT 24/M07 A2999 RMK A01 T02441071  RH  012%=      5-min Rain = 0
KVA1 231128Z 26009KT 24/M07 A2999 RMK A01 T02441071  RH  012%=      5-min Rain = 0
KVA1 231129Z 26010KT 24/M07 A30 RMK A01 T02441071  RH  012%=      5-min Rain = 0
KVA1 231130Z 26008KT 24/M07 A30 RMK A01 T02441072  RH  012%=      5-min Rain = 0
KVA1 231131Z 26009KT 24/M07 A30 RMK A01 T02441072  RH  012%=      5-min Rain = 0
KVA1 231132Z 26009KT 25/M07 A30 RMK A01 T02451072  RH  012%=      5-min Rain = 0
KVA1 231133Z 26008KT 25/M07 A30 RMK A01 T02451072  RH  012%=      5-min Rain = 0
KVA1 231134Z 26008KT 24/M07 A30 RMK A01 T02441073  RH  012%=      5-min Rain = 0
KVA1 231135Z 27009KT 24/M07 A30 RMK A01 T02431072  RH  012%=      5-min Rain = 0
KVA1 231136Z 26009KT 24/M07 A30 RMK A01 T02431072  RH  012%=      5-min Rain = 0
KVA1 231137Z 26009KT 24/M07 A30 RMK A01 T02431072  RH  012%=      5-min Rain = 0
KVA1 231138Z 25008KT 24/M07 A30 RMK A01 T02431072  RH  012%=      5-min Rain = 0
KVA1 231139Z 25008KT 24/M07 A30 RMK A01 T02421072  RH  012%=      5-min Rain = 0
KVA1 231140Z 25007KT 24/M07 A30 RMK A01 T02421072  RH  012%=      5-min Rain = 0
KVA1 231141Z 25009KT 24/M07 A30 RMK A01 T02421072  RH  012%=      5-min Rain = 0
KVA1 231142Z 25007KT 24/M07 A30 RMK A01 T02421072  RH  012%=      5-min Rain = 0
KVA1 231143Z 25007KT 24/M07 A30 RMK A01 T02421071  RH  012%=      5-min Rain = 0
KVA1 231144Z 24008KT 24/M07 A30 RMK A01 T02411071  RH  012%=      5-min Rain = 0
KVA1 231145Z 24007KT 24/M07 A30 RMK A01 T02411071  RH  012%=      5-min Rain = 0
KVA1 231146Z 24006KT 24/M07 A30 RMK A01 T02401071  RH  012%=      5-min Rain = 0
KVA1 231147Z 24006KT 24/M07 A30 RMK A01 T02401071  RH  012%=      5-min Rain = 0
KVA1 231148Z 25007KT 24/M07 A30 RMK A01 T02401070  RH  012%=      5-min Rain = 0
KVA1 231149Z 24006KT 24/M07 A30 RMK A01 T02381071  RH  012%=      5-min Rain = 0
KVA1 231150Z 24007KT 24/M07 A30 RMK A01 T02381071  RH  012%=      5-min Rain = 0
KVA1 231151Z 24007KT 24/M07 A30 RMK A01 T02391069  RH  012%=      5-min Rain = 0
KVA1 231152Z 24007KT 24/M07 A30 RMK A01 T02391069  RH  012%=      5-min Rain = 0
KVA1 231153Z 24008KT 24/M07 A30 RMK A01 T02391069  RH  012%=      5-min Rain = 0
KVA1 231154Z 23008KT 24/M07 A30 RMK A01 T02401068  RH  012%=      5-min Rain = 0
KVA1 231155Z 23007KT 24/M07 A30 RMK A01 T02401068  RH  012%=      5-min Rain = 0
KVA1 231156Z 23008KT 24/M07 A30 RMK A01 T02401068  RH  012%=      5-min Rain = 0
KVA1 231157Z 23007KT 24/M07 A30 RMK A01 T02401068  RH  012%=      5-min Rain = 0
KVA1 231158Z 23007KT 24/M07 A3001 RMK A01 T02411068  RH  012%=      5-min Rain = 0
KVA1 231159Z 24008KT 24/M07 A30 RMK A01 T02411068  RH  012%=      5-min Rain = 0
KVA1 231200Z 23009KT 24/M07 A3001 RMK A01 T02411067  RH  012%=      5-min Rain = 0
KVA1 231201Z 24007KT 24/M07 A3001 RMK A01 T02421066  RH  012%=      5-min Rain = 0
KVA1 231202Z 23008KT 24/M07 A3001 RMK A01 T02431066  RH  012%=      5-min Rain = 0
KVA1 231203Z 24007KT 24/M07 A3001 RMK A01 T02431066  RH  012%=      5-min Rain = 0
KVA1 231204Z 23006KT 24/M07 A3001 RMK A01 T02431066  RH  012%=      5-min Rain = 0
KVA1 231205Z 21008KT 24/M07 A3001 RMK A01 T02431066  RH  012%=      5-min Rain = 0
KVA1 231206Z 22007KT 24/M07 A3001 RMK A01 T02431065  RH  012%=      5-min Rain = 0
KVA1 231207Z 22008KT 24/M07 A3001 RMK A01 T02441066  RH  012%=      5-min Rain = 0
KVA1 231208Z 21006KT 24/M07 A3001 RMK A01 T02421067  RH  012%=      5-min Rain = 0
KVA1 231209Z 20007KT 24/M07 A3001 RMK A01 T02401067  RH  012%=      5-min Rain = 0
KVA1 231210Z 21005KT 24/M07 A3001 RMK A01 T02391067  RH  013%=      5-min Rain = 0
KVA1 231211Z 22008KT 24/M07 A3001 RMK A01 T02391066  RH  013%=      5-min Rain = 0
KVA1 231212Z 22009KT 24/M06 A3001 RMK A01 T02391064  RH  013%=      5-min Rain = 0
KVA1 231213Z 22009KT 24/M06 A3001 RMK A01 T02411062  RH  013%=      5-min Rain = 0
KVA1 231214Z 23008KT 24/M06 A3001 RMK A01 T02421063  RH  013%=      5-min Rain = 0
KVA1 231215Z 22008KT 24/M06 A3001 RMK A01 T02441061  RH  013%=      5-min Rain = 0
KVA1 231216Z 23008KT 25/M06 A3001 RMK A01 T02461061  RH  013%=      5-min Rain = 0
KVA1 231217Z 22008KT 25/M06 A3001 RMK A01 T02471061  RH  012%=      5-min Rain = 0
KVA1 231218Z 23007KT 25/M06 A3002 RMK A01 T02461061  RH  013%=      5-min Rain = 0
KVA1 231219Z 25007KT 25/M06 A3002 RMK A01 T02461060  RH  013%=      5-min Rain = 0
KVA1 231220Z 25009KT 25/M06 A3002 RMK A01 T02451059  RH  013%=      5-min Rain = 0
KVA1 231221Z 26008KT 24/M06 A3002 RMK A01 T02441059  RH  013%=      5-min Rain = 0
KVA1 231222Z 26009KT 24/M06 A3002 RMK A01 T02441056  RH  013%=      5-min Rain = 0
KVA1 231223Z 26008KT 25/M05 A3002 RMK A01 T02451054  RH  013%=      5-min Rain = 0
KVA1 231224Z 26008KT 25/M06 A3002 RMK A01 T02451055  RH  013%=      5-min Rain = 0
KVA1 231225Z 26009KT 25/M05 A3002 RMK A01 T02451054  RH  013%=      5-min Rain = 0
KVA1 231226Z 25009KT 25/M05 A3002 RMK A01 T02451054  RH  013%=      5-min Rain = 0
KVA1 231227Z 26009KT 25/M05 A3002 RMK A01 T02461054  RH  013%=      5-min Rain = 0
KVA1 231228Z 26009KT 25/M05 A3002 RMK A01 T02461053  RH  013%=      5-min Rain = 0
KVA1 231229Z 26008KT 25/M05 A3002 RMK A01 T02461053  RH  013%=      5-min Rain = 0
KVA1 231230Z 26007KT 25/M05 A3002 RMK A01 T02461052  RH  013%=      5-min Rain = 0
KVA1 231231Z 26011G16KT 25/M05 A3002 RMK A01 T02461052  RH  013%=      5-min Rain = 0
KVA1 231232Z 26009KT 25/M05 A3002 RMK A01 T02471053  RH  013%=      5-min Rain = 0
KVA1 231233Z 26009KT 25/M05 A3002 RMK A01 T02471052  RH  013%=      5-min Rain = 0
KVA1 231234Z 26009KT 25/M05 A3002 RMK A01 T02471052  RH  013%=      5-min Rain = 0
KVA1 231235Z 25008KT 25/M05 A3002 RMK A01 T02471051  RH  013%=      5-min Rain = 0
KVA1 231236Z 26010KT 25/M05 A3002 RMK A01 T02461051  RH  013%=      5-min Rain = 0
KVA1 231237Z 26011KT 25/M05 A3002 RMK A01 T02461051  RH  013%=      5-min Rain = 0
KVA1 231238Z 26009KT 25/M05 A3002 RMK A01 T02471051  RH  013%=      5-min Rain = 0
KVA1 231239Z 26009KT 25/M05 A3002 RMK A01 T02471051  RH  013%=      5-min Rain = 0
KVA1 231240Z 26010KT 25/M05 A3002 RMK A01 T02471051  RH  013%=      5-min Rain = 0
KVA1 231241Z 26010KT 25/M05 A3002 RMK A01 T02471051  RH  013%=      5-min Rain = 0
KVA1 231242Z 27010G15KT 25/M05 A3002 RMK A01 T02471051  RH  013%=      5-min Rain = 0
KVA1 231243Z 26010KT 25/M05 A3002 RMK A01 T02481051  RH  013%=      5-min Rain = 0
KVA1 231244Z 27011KT 25/M05 A3002 RMK A01 T02481051  RH  013%=      5-min Rain = 0
KVA1 231245Z 26011KT 25/M05 A3002 RMK A01 T02481051  RH  013%=      5-min Rain = 0
KVA1 231246Z 27012KT 25/M05 A3002 RMK A01 T02481051  RH  013%=      5-min Rain = 0
KVA1 231247Z 27010KT 25/M05 A3002 RMK A01 T02491051  RH  013%=      5-min Rain = 0
KVA1 231248Z 27009KT 25/M05 A3002 RMK A01 T02491051  RH  013%=      5-min Rain = 0
KVA1 231249Z 26007KT 25/M05 A3002 RMK A01 T02491050  RH  013%=      5-min Rain = 0
KVA1 231250Z 27008KT 25/M05 A3002 RMK A01 T02491049  RH  013%=      5-min Rain = 0
KVA1 231251Z 26009KT 25/M05 A3002 RMK A01 T02491049  RH  014%=      5-min Rain = 0
KVA1 231252Z 26008KT 25/M05 A3002 RMK A01 T02481050  RH  013%=      5-min Rain = 0
KVA1 231253Z 26006KT 25/M05 A3002 RMK A01 T02481050  RH  013%=      5-min Rain = 0
KVA1 231254Z 26007KT 25/M05 A3002 RMK A01 T02491049  RH  014%=      5-min Rain = 0
KVA1 231255Z 26007KT 25/M05 A3002 RMK A01 T02491049  RH  014%=      5-min Rain = 0
KVA1 231256Z 26006KT 25/M05 A3002 RMK A01 T02491048  RH  014%=      5-min Rain = 0
KVA1 231257Z 26007KT 25/M05 A3002 RMK A01 T02501048  RH  014%=      5-min Rain = 0
KVA1 231258Z 26009KT 25/M05 A3002 RMK A01 T02501048  RH  014%=      5-min Rain = 0
KVA1 231259Z 26008KT 25/M05 A3002 RMK A01 T02501049  RH  013%=      5-min Rain = 0
KVA1 231300Z 26007KT 25/M05 A3003 RMK A01 T02511049  RH  013%=      5-min Rain = 0
KVA1 231301Z 28008KT 25/M05 A3003 RMK A01 T02511049  RH  013%=      5-min Rain = 0
KVA1 231302Z 26007KT 25/M05 A3003 RMK A01 T02511047  RH  014%=      5-min Rain = 0
KVA1 231303Z 26004KT 25/M05 A3003 RMK A01 T02511048  RH  013%=      5-min Rain = 0
KVA1 231304Z 27005KT 25/M05 A3003 RMK A01 T02511047  RH  014%=      5-min Rain = 0
KVA1 231305Z 26006KT 25/M05 A3003 RMK A01 T02521047  RH  014%=      5-min Rain = 0
KVA1 231306Z 25006KT 25/M05 A3003 RMK A01 T02511046  RH  014%=      5-min Rain = 0
KVA1 231307Z 26006KT 25/M05 A3003 RMK A01 T02521046  RH  014%=      5-min Rain = 0
KVA1 231308Z 25006KT 25/M05 A3003 RMK A01 T02511046  RH  014%=      5-min Rain = 0
KVA1 231309Z 26006KT 25/M05 A3003 RMK A01 T02511046  RH  014%=      5-min Rain = 0
KVA1 231310Z 26007KT 25/M05 A3003 RMK A01 T02511047  RH  013%=      5-min Rain = 0
KVA1 231311Z 27005KT 25/M05 A3003 RMK A01 T02511047  RH  013%=      5-min Rain = 0
KVA1 231312Z 26005KT 25/M05 A3003 RMK A01 T02521046  RH  014%=      5-min Rain = 0
KVA1 231313Z 26005KT 25/M05 A3003 RMK A01 T02521046  RH  014%=      5-min Rain = 0
KVA1 231314Z 26006KT 25/M05 A3003 RMK A01 T02531046  RH  013%=      5-min Rain = 0
KVA1 231315Z 26006KT 25/M05 A3003 RMK A01 T02531046  RH  014%=      5-min Rain = 0
KVA1 231316Z 26005KT 25/M05 A3003 RMK A01 T02531047  RH  013%=      5-min Rain = 0
KVA1 231317Z 26004KT 25/M05 A3003 RMK A01 T02531045  RH  014%=      5-min Rain = 0
KVA1 231318Z 26005KT 25/M04 A3003 RMK A01 T02541043  RH  014%=      5-min Rain = 0
KVA1 231319Z 25006KT 25/M04 A3003 RMK A01 T02541044  RH  014%=      5-min Rain = 0
KVA1 231320Z 25007KT 26/M05 A3003 RMK A01 T02551046  RH  013%=      5-min Rain = 0
KVA1 231321Z 26005KT 26/M05 A3003 RMK A01 T02551047  RH  013%=      5-min Rain = 0
KVA1 231322Z 25006KT 26/M05 A3003 RMK A01 T02551046  RH  013%=      5-min Rain = 0
KVA1 231323Z 25006KT 26/M05 A3003 RMK A01 T02551046  RH  013%=      5-min Rain = 0
KVA1 231324Z 26007KT 26/M05 A3003 RMK A01 T02551045  RH  013%=      5-min Rain = 0
KVA1 231325Z 26006KT 26/M05 A3003 RMK A01 T02561045  RH  013%=      5-min Rain = 0
KVA1 231326Z 26007KT 26/M05 A3003 RMK A01 T02561045  RH  013%=      5-min Rain = 0
KVA1 231327Z 27007KT 26/M05 A3003 RMK A01 T02561045  RH  013%=      5-min Rain = 0
KVA1 231328Z 26005KT 26/M05 A3003 RMK A01 T02561046  RH  013%=      5-min Rain = 0
KVA1 231329Z 26005KT 26/M05 A3003 RMK A01 T02561045  RH  013%=      5-min Rain = 0
KVA1 231330Z 26004KT 26/M04 A3003 RMK A01 T02571044  RH  013%=      5-min Rain = 0
KVA1 231331Z 26006KT 26/M04 A3003 RMK A01 T02571043  RH  013%=      5-min Rain = 0
KVA1 231332Z 25006KT 26/M04 A3003 RMK A01 T02581044  RH  013%=      5-min Rain = 0
KVA1 231333Z 26007KT 26/M04 A3003 RMK A01 T02581044  RH  013%=      5-min Rain = 0
KVA1 231334Z 26007KT 26/M04 A3003 RMK A01 T02581044  RH  013%=      5-min Rain = 0
KVA1 231335Z 26007KT 26/M04 A3003 RMK A01 T02581044  RH  013%=      5-min Rain = 0
KVA1 231336Z 26006KT 26/M04 A3003 RMK A01 T02591043  RH  013%=      5-min Rain = 0
KVA1 231337Z 26008KT 26/M04 A3003 RMK A01 T02591042  RH  013%=      5-min Rain = 0
KVA1 231338Z 26009KT 26/M04 A3003 RMK A01 T02601044  RH  013%=      5-min Rain = 0
KVA1 231339Z 26009KT 26/M05 A3003 RMK A01 T02601045  RH  013%=      5-min Rain = 0
KVA1 231340Z 26009KT 26/M05 A3003 RMK A01 T02591045  RH  013%=      5-min Rain = 0
KVA1 231341Z 26008KT 26/M04 A3003 RMK A01 T02591044  RH  013%=      5-min Rain = 0
KVA1 231342Z 26007KT 26/M04 A3003 RMK A01 T02591044  RH  013%=      5-min Rain = 0
KVA1 231343Z 26007KT 26/M04 A3003 RMK A01 T02601043  RH  013%=      5-min Rain = 0
KVA1 231344Z 26008KT 26/M04 A3003 RMK A01 T02601043  RH  013%=      5-min Rain = 0
KVA1 231345Z 27009KT 26/M04 A3003 RMK A01 T02611043  RH  013%=      5-min Rain = 0
KVA1 231346Z 26010KT 26/M04 A3003 RMK A01 T02611044  RH  013%=      5-min Rain = 0
KVA1 231347Z 26008KT 26/M04 A3003 RMK A01 T02611043  RH  013%=      5-min Rain = 0
KVA1 231348Z 26009KT 26/M04 A3003 RMK A01 T02621043  RH  013%=      5-min Rain = 0
KVA1 231349Z 26008KT 26/M04 A3003 RMK A01 T02621043  RH  013%=      5-min Rain = 0
KVA1 231350Z 26008KT 26/M04 A3003 RMK A01 T02631041  RH  013%=      5-min Rain = 0
KVA1 231351Z 26010KT 26/M04 A3003 RMK A01 T02641042  RH  013%=      5-min Rain = 0
KVA1 231352Z 26009KT 26/M04 A3003 RMK A01 T02641043  RH  013%=      5-min Rain = 0
KVA1 231353Z 26007KT 26/M04 A3003 RMK A01 T02641042  RH  013%=      5-min Rain = 0
KVA1 231354Z 25009KT 26/M04 A3003 RMK A01 T02641041  RH  013%=      5-min Rain = 0
KVA1 231355Z 26009KT 26/M04 A3003 RMK A01 T02641042  RH  013%=      5-min Rain = 0
KVA1 231356Z 26010KT 27/M04 A3003 RMK A01 T02651042  RH  013%=      5-min Rain = 0
KVA1 231357Z 25007KT 27/M04 A3003 RMK A01 T02651041  RH  013%=      5-min Rain = 0
KVA1 231358Z 26008G14KT 27/M04 A3003 RMK A01 T02651040  RH  013%=      5-min Rain = 0
KVA1 231359Z 26011KT 27/M04 A3003 RMK A01 T02661041  RH  013%=      5-min Rain = 0
KVA1 231400Z 27012KT 27/M04 A3003 RMK A01 T02661042  RH  013%=      5-min Rain = 0
KVA1 231401Z 26011KT 27/M04 A3003 RMK A01 T02661042  RH  013%=      5-min Rain = 0
KVA1 231402Z 26011KT 27/M04 A3003 RMK A01 T02661041  RH  013%=      5-min Rain = 0
KVA1 231403Z 27009KT 27/M04 A3003 RMK A01 T02661041  RH  013%=      5-min Rain = 0
KVA1 231404Z 26008KT 27/M04 A3003 RMK A01 T02661040  RH  013%=      5-min Rain = 0
KVA1 231405Z 26011KT 27/M04 A3003 RMK A01 T02671041  RH  013%=      5-min Rain = 0
KVA1 231406Z 26010KT 27/M04 A3003 RMK A01 T02671040  RH  013%=      5-min Rain = 0
KVA1 231407Z 27008KT 27/M04 A3003 RMK A01 T02671041  RH  013%=      5-min Rain = 0
KVA1 231408Z 25008KT 27/M04 A3003 RMK A01 T02671040  RH  013%=      5-min Rain = 0
KVA1 231409Z 27010KT 27/M04 A3003 RMK A01 T02681039  RH  013%=      5-min Rain = 0
KVA1 231410Z 27009KT 27/M04 A3003 RMK A01 T02681040  RH  013%=      5-min Rain = 0
KVA1 231411Z 27006KT 27/M04 A3003 RMK A01 T02691038  RH  013%=      5-min Rain = 0
KVA1 231412Z 27007KT 27/M04 A3003 RMK A01 T02701037  RH  013%=      5-min Rain = 0
KVA1 231413Z 28009KT 27/M04 A3003 RMK A01 T02711039  RH  013%=      5-min Rain = 0
KVA1 231414Z 27009KT 27/M04 A3003 RMK A01 T02701039  RH  013%=      5-min Rain = 0
KVA1 231415Z 26011KT 27/M04 A3003 RMK A01 T02701040  RH  013%=      5-min Rain = 0
KVA1 231416Z 27010KT 27/M04 A3003 RMK A01 T02701040  RH  013%=      5-min Rain = 0
KVA1 231417Z 27009KT 27/M04 A3003 RMK A01 T02701040  RH  013%=      5-min Rain = 0
KVA1 231418Z 26009KT 27/M04 A3004 RMK A01 T02711039  RH  013%=      5-min Rain = 0
KVA1 231419Z 27009KT 27/M04 A3004 RMK A01 T02711039  RH  013%=      5-min Rain = 0
KVA1 231420Z 26008KT 27/M04 A3004 RMK A01 T02711039  RH  013%=      5-min Rain = 0
KVA1 231421Z 25010KT 27/M04 A3004 RMK A01 T02711038  RH  013%=      5-min Rain = 0
KVA1 231422Z 26008KT 27/M04 A3004 RMK A01 T02721038  RH  013%=      5-min Rain = 0
KVA1 231423Z 26007KT 27/M04 A3004 RMK A01 T02731038  RH  013%=      5-min Rain = 0
KVA1 231424Z 26006KT 27/M04 A3004 RMK A01 T02741037  RH  013%=      5-min Rain = 0
KVA1 231425Z 27004KT 27/M04 A3004 RMK A01 T02741037  RH  013%=      5-min Rain = 0
KVA1 231426Z 25004G9KT 27/M04 A3004 RMK A01 T02741036  RH  013%=      5-min Rain = 0
KVA1 231427Z 25007KT 28/M04 A3004 RMK A01 T02751036  RH  013%=      5-min Rain = 0
KVA1 231428Z 22005KT 28/M04 A3004 RMK A01 T02751038  RH  013%=      5-min Rain = 0
KVA1 231429Z 21004KT 28/M04 A3004 RMK A01 T02751038  RH  013%=      5-min Rain = 0
KVA1 231430Z 25005KT 28/M03 A3003 RMK A01 T02761033  RH  013%=      5-min Rain = 0
KVA1 231431Z 28005KT 28/M03 A3004 RMK A01 T02781029  RH  013%=      5-min Rain = 0
KVA1 231432Z 27004KT 28/M03 A3004 RMK A01 T02781028  RH  013%=      5-min Rain = 0
KVA1 231433Z 24003KT 28/M03 A3004 RMK A01 T02791029  RH  013%=      5-min Rain = 0
KVA1 231434Z 29002KT 28/M03 A3004 RMK A01 T02801027  RH  013%=      5-min Rain = 0
KVA1 231435Z 02003KT 28/M03 A3004 RMK A01 T02821028  RH  013%=      5-min Rain = 0
KVA1 231436Z 02001KT 28/M03 A3004 RMK A01 T02831030  RH  013%=      5-min Rain = 0
KVA1 231437Z 10001KT 28/M03 A3004 RMK A01 T02821031  RH  013%=      5-min Rain = 0
KVA1 231438Z 07002KT 28/M03 A3004 RMK A01 T02831029  RH  013%=      5-min Rain = 0
KVA1 231439Z 10001KT 28/M03 A3004 RMK A01 T02831029  RH  013%=      5-min Rain = 0
KVA1 231440Z 07003KT 28/M03 A3004 RMK A01 T02841026  RH  013%=      5-min Rain = 0
KVA1 231441Z 05003KT 28/M03 A3004 RMK A01 T02841026  RH  013%=      5-min Rain = 0
KVA1 231442Z 04002KT 29/M03 A3004 RMK A01 T02851026  RH  013%=      5-min Rain = 0
KVA1 231443Z 05001KT 29/M03 A3004 RMK A01 T02851026  RH  013%=      5-min Rain = 0
KVA1 231444Z 29000KT 28/M03 A3004 RMK A01 T02841027  RH  013%=      5-min Rain = 0
KVA1 231445Z 30001KT 29/M03 A3004 RMK A01 T02861026  RH  013%=      5-min Rain = 0
KVA1 231446Z 31004KT 29/M03 A3004 RMK A01 T02861026  RH  013%=      5-min Rain = 0
KVA1 231447Z 31003KT 29/M03 A3004 RMK A01 T02851030  RH  013%=      5-min Rain = 0
KVA1 231448Z 35001KT 29/M03 A3004 RMK A01 T02851032  RH  012%=      5-min Rain = 0
KVA1 231449Z 30002KT 29/M03 A3004 RMK A01 T02851031  RH  012%=      5-min Rain = 0
KVA1 231450Z 25004KT 29/M03 A3004 RMK A01 T02871031  RH  012%=      5-min Rain = 0
KVA1 231451Z 19002KT 29/M03 A3004 RMK A01 T02861034  RH  012%=      5-min Rain = 0
KVA1 231452Z 19004KT 29/M03 A3004 RMK A01 T02861031  RH  012%=      5-min Rain = 0
KVA1 231453Z 16007KT 29/M03 A3004 RMK A01 T02871030  RH  012%=      5-min Rain = 0
KVA1 231454Z 14004KT 29/M03 A3004 RMK A01 T02891028  RH  012%=      5-min Rain = 0
KVA1 231455Z 20005KT 29/M03 A3004 RMK A01 T02911025  RH  013%=      5-min Rain = 0
KVA1 231456Z 23002KT 29/M02 A3004 RMK A01 T02931023  RH  013%=      5-min Rain = 0
KVA1 231457Z 25003KT 30/M03 A3004 RMK A01 T02961026  RH  012%=      5-min Rain = 0
KVA1 231458Z 14002KT 30/M03 A3004 RMK A01 T02951026  RH  012%=      5-min Rain = 0
KVA1 231459Z 08004KT 30/M02 A3004 RMK A01 T02951023  RH  013%=      5-min Rain = 0
KVA1 231500Z 29002KT 30/M03 A3004 RMK A01 T02951025  RH  012%=      5-min Rain = 0
KVA1 231501Z 11001KT 29/M03 A3005 RMK A01 T02941025  RH  012%=      5-min Rain = 0
KVA1 231502Z 13002KT 29/M02 A3005 RMK A01 T02941024  RH  012%=      5-min Rain = 0
KVA1 231503Z 10004KT 30/M02 A3005 RMK A01 T02951022  RH  013%=      5-min Rain = 0
KVA1 231504Z 07003KT 30/M03 A3005 RMK A01 T02951026  RH  012%=      5-min Rain = 0
KVA1 231505Z 08004KT 29/M03 A3005 RMK A01 T02931027  RH  012%=      5-min Rain = 0
KVA1 231506Z 11003KT 29/M03 A3005 RMK A01 T02921025  RH  013%=      5-min Rain = 0
KVA1 231507Z 11003KT 29/M03 A3005 RMK A01 T02911026  RH  013%=      5-min Rain = 0
KVA1 231508Z 14003KT 29/M03 A3005 RMK A01 T02901025  RH  013%=      5-min Rain = 0
KVA1 231509Z 18001KT 29/M03 A3005 RMK A01 T02891028  RH  013%=      5-min Rain = 0
KVA1 231510Z 11003KT 29/M03 A3004 RMK A01 T02891025  RH  013%=      5-min Rain = 0
KVA1 231511Z 11006KT 29/M02 A3004 RMK A01 T02911024  RH  013%=      5-min Rain = 0
KVA1 231512Z 12006KT 29/M02 A3005 RMK A01 T02921023  RH  013%=      5-min Rain = 0
KVA1 231513Z 12005KT 29/M03 A3005 RMK A01 T02931026  RH  012%=      5-min Rain = 0
KVA1 231514Z 12003KT 29/M03 A3004 RMK A01 T02921027  RH  012%=      5-min Rain = 0
KVA1 231515Z 11003KT 29/M03 A3004 RMK A01 T02911027  RH  012%=      5-min Rain = 0
KVA1 231516Z 14000KT 29/M03 A3004 RMK A01 T02901027  RH  012%=      5-min Rain = 0
KVA1 231517Z 13000KT 29/M03 A3004 RMK A01 T02891027  RH  013%=      5-min Rain = 0
KVA1 231518Z 12003KT 29/M03 A3004 RMK A01 T02891027  RH  013%=      5-min Rain = 0
KVA1 231519Z 13003KT 29/M03 A3004 RMK A01 T02891027  RH  013%=      5-min Rain = 0
KVA1 231520Z 12004KT 29/M03 A3004 RMK A01 T02911026  RH  013%=      5-min Rain = 0
KVA1 231521Z 10005KT 29/M03 A3004 RMK A01 T02921025  RH  013%=      5-min Rain = 0
KVA1 231522Z 10002KT 29/M03 A3004 RMK A01 T02921027  RH  012%=      5-min Rain = 0
KVA1 231523Z 10001KT 29/M03 A3004 RMK A01 T02911026  RH  012%=      5-min Rain = 0
KVA1 231524Z 36001KT 29/M03 A3004 RMK A01 T02901028  RH  012%=      5-min Rain = 0
KVA1 231525Z 03001KT 29/M03 A3004 RMK A01 T02901027  RH  013%=      5-min Rain = 0
KVA1 231526Z 02001KT 29/M03 A3004 RMK A01 T02901027  RH  012%=      5-min Rain = 0
KVA1 231527Z 02000KT 29/M03 A3004 RMK A01 T02901027  RH  012%=      5-min Rain = 0
KVA1 231528Z 09003KT 29/M03 A3004 RMK A01 T02911027  RH  013%=      5-min Rain = 0
KVA1 231529Z 11004KT 29/M03 A3004 RMK A01 T02921025  RH  013%=      5-min Rain = 0
KVA1 231530Z 10002KT 29/M03 A3004 RMK A01 T02931026  RH  012%=      5-min Rain = 0
KVA1 231531Z 09001KT 29/M03 A3004 RMK A01 T02931026  RH  012%=      5-min Rain = 0
KVA1 231532Z 10003KT 29/M02 A3004 RMK A01 T02941024  RH  013%=      5-min Rain = 0
KVA1 231533Z 11004KT 30/M02 A3004 RMK A01 T02951021  RH  013%=      5-min Rain = 0
KVA1 231534Z 15004KT 30/M03 A3004 RMK A01 T02961025  RH  012%=      5-min Rain = 0
KVA1 231535Z 15002KT 30/M03 A3004 RMK A01 T02951026  RH  012%=      5-min Rain = 0
KVA1 231536Z 11002KT 30/M03 A3004 RMK A01 T02951025  RH  012%=      5-min Rain = 0
KVA1 231537Z 12001KT 30/M03 A3004 RMK A01 T02951026  RH  012%=      5-min Rain = 0
KVA1 231538Z 08001KT 30/M03 A3004 RMK A01 T02951025  RH  012%=      5-min Rain = 0
KVA1 231539Z 09002KT 30/M03 A3004 RMK A01 T02951027  RH  012%=      5-min Rain = 0
KVA1 231540Z 10000KT 29/M03 A3004 RMK A01 T02931027  RH  012%=      5-min Rain = 0
KVA1 231541Z 01001KT 29/M03 A3004 RMK A01 T02931027  RH  012%=      5-min Rain = 0
KVA1 231542Z 04001KT 29/M03 A3004 RMK A01 T02941026  RH  012%=      5-min Rain = 0
KVA1 231543Z 15001KT 30/M03 A3004 RMK A01 T02951025  RH  012%=      5-min Rain = 0
KVA1 231544Z 25001KT 30/M03 A3004 RMK A01 T02971026  RH  012%=      5-min Rain = 0
KVA1 231545Z 27001KT 30/M03 A3004 RMK A01 T02971025  RH  012%=      5-min Rain = 0
KVA1 231546Z 20001KT 30/M03 A3004 RMK A01 T02981025  RH  012%=      5-min Rain = 0
KVA1 231547Z 16003KT 30/M02 A3004 RMK A01 T03001023  RH  012%=      5-min Rain = 0
KVA1 231548Z 16005KT 30/M02 A3004 RMK A01 T03011022  RH  012%=      5-min Rain = 0
KVA1 231549Z 16006KT 30/M03 A3004 RMK A01 T03021025  RH  012%=      5-min Rain = 0
KVA1 231550Z 16005KT 30/M03 A3004 RMK A01 T03021025  RH  012%=      5-min Rain = 0
KVA1 231551Z 15005KT 30/M02 A3004 RMK A01 T03011024  RH  012%=      5-min Rain = 0
KVA1 231552Z 13004KT 30/M02 A3004 RMK A01 T03021024  RH  012%=      5-min Rain = 0
KVA1 231553Z 13005KT 30/M02 A3004 RMK A01 T03021024  RH  012%=      5-min Rain = 0
KVA1 231554Z 14004KT 30/M02 A3004 RMK A01 T03011024  RH  012%=      5-min Rain = 0
KVA1 231555Z 15003KT 30/M02 A3004 RMK A01 T03001023  RH  012%=      5-min Rain = 0
KVA1 231556Z 17003KT 30/M02 A3004 RMK A01 T03011024  RH  012%=      5-min Rain = 0
KVA1 231557Z 16002KT 30/M03 A3004 RMK A01 T03001025  RH  012%=      5-min Rain = 0
KVA1 231558Z 17002KT 30/M02 A3004 RMK A01 T02991024  RH  012%=      5-min Rain = 0
KVA1 231559Z 22001KT 30/M03 A3004 RMK A01 T02991025  RH  012%=      5-min Rain = 0
KVA1 231600Z 24002KT 30/M03 A3004 RMK A01 T02981026  RH  012%=      5-min Rain = 0
KVA1 231601Z 25002KT 30/M03 A3004 RMK A01 T02971027  RH  012%=      5-min Rain = 0
KVA1 231602Z 29001KT 30/M03 A3004 RMK A01 T02951028  RH  012%=      5-min Rain = 0
KVA1 231603Z 20002KT 29/M03 A3004 RMK A01 T02941026  RH  012%=      5-min Rain = 0
KVA1 231604Z 18004KT 30/M02 A3004 RMK A01 T02951024  RH  012%=      5-min Rain = 0
KVA1 231605Z 18003KT 30/M03 A3003 RMK A01 T02971025  RH  012%=      5-min Rain = 0
KVA1 231606Z 21003KT 30/M02 A3003 RMK A01 T02981023  RH  012%=      5-min Rain = 0
KVA1 231607Z 22002KT 30/M03 A3003 RMK A01 T02991025  RH  012%=      5-min Rain = 0
KVA1 231608Z 20001KT 30/M03 A3003 RMK A01 T02991025  RH  012%=      5-min Rain = 0
KVA1 231609Z 20003KT 30/M02 A3003 RMK A01 T03001024  RH  012%=      5-min Rain = 0
KVA1 231610Z 20007KT 30/M02 A3003 RMK A01 T03011021  RH  012%=      5-min Rain = 0
KVA1 231611Z 20005KT 30/M02 A3003 RMK A01 T03011024  RH  012%=      5-min Rain = 0
KVA1 231612Z 17005KT 30/M03 A3003 RMK A01 T02981027  RH  012%=      5-min Rain = 0
KVA1 231613Z 19005KT 30/M02 A3003 RMK A01 T02971024  RH  012%=      5-min Rain = 0
KVA1 231614Z 21004KT 30/M03 A3003 RMK A01 T02981025  RH  012%=      5-min Rain = 0
KVA1 231615Z 17004KT 30/M02 A3003 RMK A01 T02991024  RH  012%=      5-min Rain = 0
KVA1 231616Z 18006KT 30/M02 A3003 RMK A01 T03011022  RH  012%=      5-min Rain = 0
KVA1 231617Z 19005KT 30/M02 A3003 RMK A01 T03031021  RH  012%=      5-min Rain = 0
KVA1 231618Z 19004KT 30/M02 A3003 RMK A01 T03041022  RH  012%=      5-min Rain = 0
KVA1 231619Z 21001KT 30/M03 A3003 RMK A01 T03011025  RH  012%=      5-min Rain = 0
KVA1 231620Z 01000KT 30/M03 A3003 RMK A01 T02991026  RH  012%=      5-min Rain = 0
KVA1 231621Z 13001KT 30/M03 A3003 RMK A01 T02991026  RH  012%=      5-min Rain = 0
KVA1 231622Z 13002KT 30/M02 A3003 RMK A01 T03011022  RH  012%=      5-min Rain = 0
KVA1 231623Z 10001KT 31/M02 A3003 RMK A01 T03051021  RH  012%=      5-min Rain = 0
KVA1 231624Z 14001KT 31/M02 A3003 RMK A01 T03081023  RH  012%=      5-min Rain = 0
KVA1 231625Z 13001KT 31/M02 A3003 RMK A01 T03081024  RH  012%=      5-min Rain = 0
KVA1 231626Z 18003KT 31/M02 A3003 RMK A01 T03081022  RH  012%=      5-min Rain = 0
KVA1 231627Z 06005KT 31/M02 A3003 RMK A01 T03091020  RH  012%=      5-min Rain = 0
KVA1 231628Z 33005KT 31/M02 A3003 RMK A01 T03121018  RH  012%=      5-min Rain = 0
KVA1 231629Z 29005KT 31/M02 A3003 RMK A01 T03131018  RH  012%=      5-min Rain = 0
KVA1 231630Z 30010KT 31/M01 A3003 RMK A01 T03121014  RH  012%=      5-min Rain = 0
KVA1 231631Z 30007KT 31/M02 A3003 RMK A01 T03101018  RH  012%=      5-min Rain = 0
KVA1 231632Z 30005KT 31/M02 A3003 RMK A01 T03081015  RH  012%=      5-min Rain = 0
KVA1 231633Z 30004KT 31/M02 A3003 RMK A01 T03071016  RH  012%=      5-min Rain = 0
KVA1 231634Z 27006KT 31/M02 A3003 RMK A01 T03051017  RH  012%=      5-min Rain = 0
KVA1 231635Z 26006KT 31/M02 A3003 RMK A01 T03051016  RH  012%=      5-min Rain = 0
KVA1 231636Z 27005KT 30/M02 A3003 RMK A01 T03041018  RH  012%=      5-min Rain = 0
KVA1 231637Z 27005KT 30/M02 A3003 RMK A01 T03041016  RH  013%=      5-min Rain = 0
KVA1 231638Z 28002KT 30/M02 A3003 RMK A01 T03031018  RH  012%=      5-min Rain = 0
KVA1 231639Z 33001KT 30/M02 A3003 RMK A01 T03031017  RH  013%=      5-min Rain = 0
KVA1 231640Z 01004KT 31/M02 A3003 RMK A01 T03051016  RH  012%=      5-min Rain = 0
KVA1 231641Z 02004KT 31/M02 A3003 RMK A01 T03081018  RH  012%=      5-min Rain = 0
KVA1 231642Z 34005KT 31/M02 A3003 RMK A01 T03091018  RH  012%=      5-min Rain = 0
KVA1 231643Z 34003KT 31/M02 A3003 RMK A01 T03081017  RH  012%=      5-min Rain = 0
KVA1 231644Z 05003KT 31/M02 A3003 RMK A01 T03081018  RH  012%=      5-min Rain = 0
KVA1 231645Z 03002KT 31/M02 A3003 RMK A01 T03091019  RH  012%=      5-min Rain = 0
KVA1 231646Z 01004KT 31/M02 A3003 RMK A01 T03091019  RH  012%=      5-min Rain = 0
KVA1 231647Z 01004KT 31/M02 A3003 RMK A01 T03081019  RH  012%=      5-min Rain = 0
KVA1 231648Z 36003KT 31/M02 A3003 RMK A01 T03091016  RH  012%=      5-min Rain = 0
KVA1 231649Z 29003KT 31/M02 A3003 RMK A01 T03101018  RH  012%=      5-min Rain = 0
KVA1 231650Z 31001KT 31/M02 A3003 RMK A01 T03081019  RH  012%=      5-min Rain = 0
KVA1 231651Z 26002KT 31/M02 A3003 RMK A01 T03071019  RH  012%=      5-min Rain = 0
KVA1 231652Z 30003KT 31/M02 A3003 RMK A01 T03071018  RH  012%=      5-min Rain = 0
KVA1 231653Z 29007G12KT 31/M01 A3003 RMK A01 T03081014  RH  012%=      5-min Rain = 0
KVA1 231654Z 20004KT 31/M01 A3003 RMK A01 T03111012  RH  012%=      5-min Rain = 0
KVA1 231655Z 20003KT 31/M01 A3003 RMK A01 T03101011  RH  013%=      5-min Rain = 0
KVA1 231656Z 19001KT 31/M01 A3003 RMK A01 T03101011  RH  013%=      5-min Rain = 0
KVA1 231657Z 20003KT 31/M01 A3003 RMK A01 T03121009  RH  013%=      5-min Rain = 0
KVA1 231658Z 23003KT 32/M01 A3003 RMK A01 T03161007  RH  012%=      5-min Rain = 0
KVA1 231659Z 25004KT 32/M01 A3003 RMK A01 T03191008  RH  012%=      5-min Rain = 0
KVA1 231700Z 24004KT 32/M01 A3003 RMK A01 T03181011  RH  012%=      5-min Rain = 0
KVA1 231701Z 20007KT 32/M01 A3003 RMK A01 T03151007  RH  013%=      5-min Rain = 0
KVA1 231702Z 28016G22KT 32/M00 A3002 RMK A01 T03191004  RH  013%=      5-min Rain = 0
KVA1 231703Z 32008KT 32/M01 A3003 RMK A01 T03201006  RH  012%=      5-min Rain = 0
KVA1 231704Z 25010KT 32/M01 A3003 RMK A01 T03191008  RH  012%=      5-min Rain = 0
KVA1 231705Z 25006KT 32/M01 A3003 RMK A01 T03161009  RH  012%=      5-min Rain = 0
KVA1 231706Z 26004KT 32/M01 A3003 RMK A01 T03171006  RH  013%=      5-min Rain = 0
KVA1 231707Z 29004KT 32/M01 A3003 RMK A01 T03181007  RH  012%=      5-min Rain = 0
KVA1 231708Z 29006KT 32/M01 A3003 RMK A01 T03201009  RH  012%=      5-min Rain = 0
KVA1 231709Z 30007KT 32/M01 A3003 RMK A01 T03211009  RH  012%=      5-min Rain = 0
KVA1 231710Z 27007KT 32/M01 A3003 RMK A01 T03231009  RH  012%=      5-min Rain = 0
KVA1 231711Z 27006KT 32/M01 A3003 RMK A01 T03221010  RH  012%=      5-min Rain = 0
KVA1 231712Z 31005KT 32/M01 A3003 RMK A01 T03221010  RH  012%=      5-min Rain = 0
KVA1 231713Z 27006G13KT 32/M01 A3003 RMK A01 T03211011  RH  012%=      5-min Rain = 0
KVA1 231714Z 25012KT 32/M01 A3003 RMK A01 T03211011  RH  012%=      5-min Rain = 0
KVA1 231715Z 25009KT 32/M01 A3003 RMK A01 T03191012  RH  012%=      5-min Rain = 0
KVA1 231716Z 25011KT 32/M01 A3002 RMK A01 T03211011  RH  012%=      5-min Rain = 0
KVA1 231717Z 25009KT 32/M01 A3002 RMK A01 T03181014  RH  012%=      5-min Rain = 0
KVA1 231718Z 24008KT 32/M01 A3002 RMK A01 T03171014  RH  012%=      5-min Rain = 0
KVA1 231719Z 24008KT 32/M01 A3002 RMK A01 T03181013  RH  012%=      5-min Rain = 0
KVA1 231720Z 26008KT 32/M01 A3002 RMK A01 T03181012  RH  012%=      5-min Rain = 0
KVA1 231721Z 27006KT 32/M01 A3003 RMK A01 T03181011  RH  012%=      5-min Rain = 0
KVA1 231722Z 26004KT 32/M01 A3002 RMK A01 T03191010  RH  012%=      5-min Rain = 0
KVA1 231723Z 26005KT 32/M01 A3002 RMK A01 T03201010  RH  012%=      5-min Rain = 0
KVA1 231724Z 25005KT 32/M01 A3003 RMK A01 T03211011  RH  012%=      5-min Rain = 0
KVA1 231725Z 25006KT 32/M02 A3003 RMK A01 T03191015  RH  012%=      5-min Rain = 0
KVA1 231726Z 25005KT 32/M02 A3003 RMK A01 T03151017  RH  012%=      5-min Rain = 0
KVA1 231727Z 27008G13KT 32/M02 A3002 RMK A01 T03151015  RH  012%=      5-min Rain = 0
KVA1 231728Z 25011KT 32/M02 A3002 RMK A01 T03171016  RH  012%=      5-min Rain = 0
KVA1 231729Z 28010KT 32/M01 A3002 RMK A01 T03211012  RH  012%=      5-min Rain = 0
KVA1 231730Z 29009KT 33/M01 A3003 RMK A01 T03251009  RH  012%=      5-min Rain = 0
KVA1 231731Z 29007KT 32/M01 A3003 RMK A01 T03241012  RH  011%=      5-min Rain = 0
KVA1 231732Z 28007KT 32/M01 A3003 RMK A01 T03221014  RH  011%=      5-min Rain = 0
KVA1 231733Z 28008KT 32/M02 A3003 RMK A01 T03211019  RH  011%=      5-min Rain = 0
KVA1 231734Z 27007KT 32/M02 A3002 RMK A01 T03201021  RH  011%=      5-min Rain = 0
KVA1 231735Z 29006KT 32/M02 A3002 RMK A01 T03201019  RH  011%=      5-min Rain = 0
KVA1 231736Z 26005KT 32/M02 A3002 RMK A01 T03191018  RH  011%=      5-min Rain = 0
KVA1 231737Z 27004KT 32/M02 A3002 RMK A01 T03181020  RH  011%=      5-min Rain = 0
KVA1 231738Z 28003KT 32/M02 A3002 RMK A01 T03161023  RH  011%=      5-min Rain = 0
KVA1 231739Z 00005KT 32/M02 A3002 RMK A01 T03151019  RH  012%=      5-min Rain = 0
KVA1 231740Z 35006KT 32/M02 A3002 RMK A01 T03161016  RH  012%=      5-min Rain = 0
KVA1 231741Z 35006KT 32/M01 A3002 RMK A01 T03201014  RH  012%=      5-min Rain = 0
KVA1 231742Z 35005KT 32/M02 A3002 RMK A01 T03221015  RH  011%=      5-min Rain = 0
KVA1 231743Z 30005KT 32/M01 A3002 RMK A01 T03241013  RH  011%=      5-min Rain = 0
KVA1 231744Z 29008KT 33/M01 A3002 RMK A01 T03291011  RH  011%=      5-min Rain = 0
KVA1 231745Z 29011KT 33/M02 A3002 RMK A01 T03311019  RH  010%=      5-min Rain = 0
KVA1 231746Z 31010KT 33/M03 A3002 RMK A01 T03281025  RH  010%=      5-min Rain = 0
KVA1 231747Z 31009KT 32/M02 A3002 RMK A01 T03231022  RH  011%=      5-min Rain = 0
KVA1 231748Z 31009KT 32/M02 A3002 RMK A01 T03231018  RH  011%=      5-min Rain = 0
KVA1 231749Z 31009KT 32/M02 A3002 RMK A01 T03221017  RH  011%=      5-min Rain = 0
KVA1 231750Z 28010KT 32/M02 A3002 RMK A01 T03221015  RH  011%=      5-min Rain = 0
KVA1 231751Z 28007KT 32/M02 A3002 RMK A01 T03201018  RH  011%=      5-min Rain = 0
KVA1 231752Z 28005KT 32/M02 A3002 RMK A01 T03161019  RH  011%=      5-min Rain = 0
KVA1 231753Z 31004KT 32/M01 A3002 RMK A01 T03181013  RH  012%=      5-min Rain = 0
KVA1 231754Z 32004KT 32/M01 A3002 RMK A01 T03231012  RH  012%=      5-min Rain = 0
KVA1 231755Z 01002KT 32/M02 A3002 RMK A01 T03231016  RH  011%=      5-min Rain = 0
KVA1 231756Z 18004KT 32/M02 A3002 RMK A01 T03221015  RH  011%=      5-min Rain = 0
KVA1 231757Z 19005KT 32/M01 A3002 RMK A01 T03221014  RH  011%=      5-min Rain = 0
KVA1 231758Z 17004KT 32/M02 A3002 RMK A01 T03211015  RH  011%=      5-min Rain = 0
KVA1 231759Z 21005KT 32/M01 A3002 RMK A01 T03221012  RH  012%=      5-min Rain = 0
KVA1 231800Z 29007G12KT 32/M01 A3002 RMK A01 T03231013  RH  012%=      5-min Rain = 0
KVA1 231801Z 26010KT 32/M01 A3002 RMK A01 T03231013  RH  012%=      5-min Rain = 0
KVA1 231802Z 25007KT 32/M02 A3002 RMK A01 T03201016  RH  011%=      5-min Rain = 0
KVA1 231803Z 26005KT 32/M02 A3002 RMK A01 T03191016  RH  012%=      5-min Rain = 0
KVA1 231804Z 25003KT 32/M02 A3002 RMK A01 T03191015  RH  012%=      5-min Rain = 0
KVA1 231805Z 25005KT 32/M01 A3001 RMK A01 T03221013  RH  012%=      5-min Rain = 0
KVA1 231806Z 24003KT 32/M02 A3001 RMK A01 T03221016  RH  011%=      5-min Rain = 0
KVA1 231807Z 20002KT 32/M02 A3001 RMK A01 T03201019  RH  011%=      5-min Rain = 0
KVA1 231808Z 14002KT 32/M02 A3001 RMK A01 T03191018  RH  011%=      5-min Rain = 0
KVA1 231809Z 02001KT 32/M02 A3001 RMK A01 T03201017  RH  011%=      5-min Rain = 0
KVA1 231810Z 34005KT 32/M02 A3001 RMK A01 T03231015  RH  011%=      5-min Rain = 0
KVA1 231811Z 31005KT 33/M01 A3001 RMK A01 T03261013  RH  011%=      5-min Rain = 0
KVA1 231812Z 32006KT 33/M02 A3001 RMK A01 T03251015  RH  011%=      5-min Rain = 0
KVA1 231813Z 33009KT 32/M02 A3001 RMK A01 T03231016  RH  011%=      5-min Rain = 0
KVA1 231814Z 28008KT 32/M01 A3001 RMK A01 T03221014  RH  011%=      5-min Rain = 0
KVA1 231815Z 29010KT 33/M01 A3001 RMK A01 T03271012  RH  011%=      5-min Rain = 0
KVA1 231816Z 28011G16KT 33/M02 A3001 RMK A01 T03271015  RH  011%=      5-min Rain = 0
KVA1 231817Z 28008KT 33/M02 A3001 RMK A01 T03261017  RH  011%=      5-min Rain = 0
KVA1 231818Z 27012G17KT 33/M02 A3001 RMK A01 T03261019  RH  011%=      5-min Rain = 0
KVA1 231819Z 27010G16KT 33/M02 A3001 RMK A01 T03261018  RH  011%=      5-min Rain = 0
KVA1 231820Z 27015KT 33/M02 A3001 RMK A01 T03301017  RH  011%=      5-min Rain = 0
KVA1 231821Z 27010G15KT 33/M02 A3001 RMK A01 T03281020  RH  011%=      5-min Rain = 0
KVA1 231822Z 27008KT 33/M02 A3001 RMK A01 T03261020  RH  011%=      5-min Rain = 0
KVA1 231823Z 27013KT 33/M02 A3001 RMK A01 T03271022  RH  011%=      5-min Rain = 0
KVA1 231824Z 26009KT 33/M03 A3001 RMK A01 T03251025  RH  010%=      5-min Rain = 0
KVA1 231825Z 27005KT 32/M03 A3001 RMK A01 T03211026  RH  011%=      5-min Rain = 0
KVA1 231826Z 29004KT 32/M02 A3001 RMK A01 T03221021  RH  011%=      5-min Rain = 0
KVA1 231827Z 29007G16KT 32/M02 A3001 RMK A01 T03231019  RH  011%=      5-min Rain = 0
KVA1 231828Z 28012KT 33/M02 A3001 RMK A01 T03251017  RH  011%=      5-min Rain = 0
KVA1 231829Z 30009KT 33/M02 A3001 RMK A01 T03261016  RH  011%=      5-min Rain = 0
KVA1 231830Z 32008KT 33/M02 A3001 RMK A01 T03271019  RH  011%=      5-min Rain = 0
KVA1 231831Z 31008KT 33/M02 A3001 RMK A01 T03251018  RH  011%=      5-min Rain = 0
KVA1 231832Z 32006KT 33/M02 A3001 RMK A01 T03251021  RH  011%=      5-min Rain = 0
KVA1 231833Z 35003KT 32/M03 A3001 RMK A01 T03211025  RH  011%=      5-min Rain = 0
KVA1 231834Z 05002KT 32/M03 A30 RMK A01 T03191025  RH  011%=      5-min Rain = 0
KVA1 231835Z 31004G9KT 32/M02 A30 RMK A01 T03181022  RH  011%=      5-min Rain = 0
KVA1 231836Z 32010KT 32/M02 A30 RMK A01 T03221017  RH  011%=      5-min Rain = 0
KVA1 231837Z 30009KT 33/M02 A30 RMK A01 T03281015  RH  011%=      5-min Rain = 0
KVA1 231838Z 31010KT 33/M02 A30 RMK A01 T03291016  RH  011%=      5-min Rain = 0
KVA1 231839Z 31010KT 33/M02 A30 RMK A01 T03301015  RH  011%=      5-min Rain = 0
KVA1 231840Z 30006KT 33/M02 A30 RMK A01 T03291019  RH  011%=      5-min Rain = 0
KVA1 231841Z 28004KT 32/M02 A30 RMK A01 T03241023  RH  011%=      5-min Rain = 0
KVA1 231842Z 04001KT 32/M02 A30 RMK A01 T03201022  RH  011%=      5-min Rain = 0
KVA1 231843Z 04002KT 32/M02 A30 RMK A01 T03201021  RH  011%=      5-min Rain = 0
KVA1 231844Z 31002KT 32/M02 A30 RMK A01 T03231021  RH  011%=      5-min Rain = 0
KVA1 231845Z 30005KT 32/M02 A30 RMK A01 T03241018  RH  011%=      5-min Rain = 0
KVA1 231846Z 29009G16KT 32/M02 A30 RMK A01 T03241020  RH  011%=      5-min Rain = 0
KVA1 231847Z 27012KT 33/M02 A30 RMK A01 T03261023  RH  010%=      5-min Rain = 0
KVA1 231848Z 27015KT 33/M03 A30 RMK A01 T03311027  RH  010%=      5-min Rain = 0
KVA1 231849Z 26013KT 33/M03 A30 RMK A01 T03281029  RH  010%=      5-min Rain = 0
KVA1 231850Z 25012G17KT 33/M03 A30 RMK A01 T03291027  RH  010%=      5-min Rain = 0
KVA1 231851Z 25009KT 33/M03 A30 RMK A01 T03281029  RH  010%=      5-min Rain = 0
KVA1 231852Z 25009KT 33/M03 A30 RMK A01 T03251028  RH  010%=      5-min Rain = 0
KVA1 231853Z 24011KT 33/M03 A30 RMK A01 T03281025  RH  010%=      5-min Rain = 0
KVA1 231854Z 25008KT 33/M03 A30 RMK A01 T03301026  RH  010%=      5-min Rain = 0
KVA1 231855Z 24007KT 33/M03 A30 RMK A01 T03271027  RH  010%=      5-min Rain = 0
KVA1 231856Z 21006KT 33/M03 A30 RMK A01 T03251026  RH  010%=      5-min Rain = 0
KVA1 231857Z 23006KT 32/M03 A30 RMK A01 T03241028  RH  010%=      5-min Rain = 0
KVA1 231858Z 27006KT 32/M02 A30 RMK A01 T03231024  RH  011%=      5-min Rain = 0
KVA1 231859Z 26009KT 33/M02 A30 RMK A01 T03271022  RH  011%=      5-min Rain = 0
KVA1 231900Z 28011KT 33/M02 A30 RMK A01 T03301021  RH  010%=      5-min Rain = 0
KVA1 231901Z 29012KT 33/M02 A30 RMK A01 T03271021  RH  011%=      5-min Rain = 0
KVA1 231902Z 28010KT 33/M02 A30 RMK A01 T03261022  RH  011%=      5-min Rain = 0
KVA1 231903Z 27007KT 33/M02 A30 RMK A01 T03271020  RH  011%=      5-min Rain = 0
KVA1 231904Z 27007KT 33/M02 A30 RMK A01 T03301020  RH  011%=      5-min Rain = 0
KVA1 231905Z 32007KT 33/M02 A30 RMK A01 T03331017  RH  011%=      5-min Rain = 0
KVA1 231906Z 27006KT 33/M02 A30 RMK A01 T03321021  RH  010%=      5-min Rain = 0
KVA1 231907Z 31008KT 33/M02 A30 RMK A01 T03281020  RH  011%=      5-min Rain = 0
KVA1 231908Z 33006KT 33/M02 A2999 RMK A01 T03261022  RH  011%=      5-min Rain = 0
KVA1 231909Z 33005KT 32/M02 A2999 RMK A01 T03241021  RH  011%=      5-min Rain = 0
KVA1 231910Z 31008KT 32/M02 A2999 RMK A01 T03241020  RH  011%=      5-min Rain = 0
KVA1 231911Z 33008KT 33/M02 A2999 RMK A01 T03271018  RH  011%=      5-min Rain = 0
KVA1 231912Z 33009KT 33/M02 A2999 RMK A01 T03301018  RH  011%=      5-min Rain = 0
KVA1 231913Z 30005KT 33/M02 A2999 RMK A01 T03301020  RH  010%=      5-min Rain = 0
KVA1 231914Z 29007G13KT 33/M02 A2999 RMK A01 T03281019  RH  011%=      5-min Rain = 0
KVA1 231915Z 30011G16KT 33/M02 A2999 RMK A01 T03311015  RH  011%=      5-min Rain = 0
KVA1 231916Z 29008G13KT 33/M02 A2999 RMK A01 T03331017  RH  011%=      5-min Rain = 0
KVA1 231917Z 27008G14KT 34/M02 A2999 RMK A01 T03351015  RH  011%=      5-min Rain = 0
KVA1 231918Z 31008KT 33/M02 A2999 RMK A01 T03321018  RH  011%=      5-min Rain = 0
KVA1 231919Z 31011KT 33/M02 A2999 RMK A01 T03311017  RH  011%=      5-min Rain = 0
KVA1 231920Z 31011KT 33/M02 A2999 RMK A01 T03311018  RH  011%=      5-min Rain = 0
KVA1 231921Z 31010KT 33/M02 A2999 RMK A01 T03331016  RH  011%=      5-min Rain = 0
KVA1 231922Z 30005G10KT 33/M02 A2999 RMK A01 T03331016  RH  011%=      5-min Rain = 0
KVA1 231923Z 30004KT 34/M02 A2999 RMK A01 T03351018  RH  010%=      5-min Rain = 0
KVA1 231924Z 23004KT 33/M02 A2999 RMK A01 T03341019  RH  010%=      5-min Rain = 0
KVA1 231925Z 23005KT 33/M02 A2999 RMK A01 T03321022  RH  010%=      5-min Rain = 0
KVA1 231926Z 11001KT 33/M03 A2999 RMK A01 T03291025  RH  010%=      5-min Rain = 0
KVA1 231927Z 10002KT 33/M03 A2999 RMK A01 T03271025  RH  010%=      5-min Rain = 0
KVA1 231928Z 11002KT 33/M03 A2999 RMK A01 T03251026  RH  010%=      5-min Rain = 0
KVA1 231929Z 11002KT 32/M03 A2998 RMK A01 T03231025  RH  011%=      5-min Rain = 0
KVA1 231930Z 25001KT 32/M02 A2999 RMK A01 T03211024  RH  011%=      5-min Rain = 0
KVA1 231931Z 29007G13KT 32/M02 A2998 RMK A01 T03221023  RH  011%=      5-min Rain = 0
KVA1 231932Z 23012KT 33/M02 A2998 RMK A01 T03291022  RH  010%=      5-min Rain = 0
KVA1 231933Z 24008KT 33/M03 A2998 RMK A01 T03341025  RH  010%=      5-min Rain = 0
KVA1 231934Z 24009KT 34/M03 A2998 RMK A01 T03381027  RH  010%=      5-min Rain = 0
KVA1 231935Z 25010KT 34/M03 A2998 RMK A01 T03421028  RH  009%=      5-min Rain = 0
KVA1 231936Z 26009KT 34/M03 A2999 RMK A01 T03421029  RH  009%=      5-min Rain = 0
KVA1 231937Z 27006KT 34/M03 A2998 RMK A01 T03391029  RH  009%=      5-min Rain = 0
KVA1 231938Z 29006KT 34/M03 A2998 RMK A01 T03401025  RH  010%=      5-min Rain = 0
KVA1 231939Z 30010G15KT 34/M03 A2998 RMK A01 T03421026  RH  009%=      5-min Rain = 0
KVA1 231940Z 30013KT 34/M03 A2998 RMK A01 T03411027  RH  009%=      5-min Rain = 0
KVA1 231941Z 28015KT 34/M03 A2998 RMK A01 T03381026  RH  010%=      5-min Rain = 0
KVA1 231942Z 27010KT 34/M02 A2998 RMK A01 T03351022  RH  010%=      5-min Rain = 0
KVA1 231943Z 28007KT 33/M02 A2998 RMK A01 T03311023  RH  010%=      5-min Rain = 0
KVA1 231944Z 29009KT 33/M02 A2998 RMK A01 T03341021  RH  010%=      5-min Rain = 0
KVA1 231945Z 27011G19KT 33/M02 A2998 RMK A01 T03341024  RH  010%=      5-min Rain = 0
KVA1 231946Z 26015KT 34/M02 A2998 RMK A01 T03361020  RH  010%=      5-min Rain = 0
KVA1 231947Z 26011KT 34/M02 A2998 RMK A01 T03391019  RH  010%=      5-min Rain = 0
KVA1 231948Z 25007KT 34/M02 A2998 RMK A01 T03381021  RH  010%=      5-min Rain = 0
KVA1 231949Z 23006KT 34/M02 A2998 RMK A01 T03351022  RH  010%=      5-min Rain = 0
KVA1 231950Z 23006KT 33/M02 A2998 RMK A01 T03321022  RH  010%=      5-min Rain = 0
KVA1 231951Z 23006KT 33/M02 A2998 RMK A01 T03311022  RH  010%=      5-min Rain = 0
KVA1 231952Z 23008KT 33/M02 A2998 RMK A01 T03311020  RH  010%=      5-min Rain = 0
KVA1 231953Z 23010KT 34/M02 A2998 RMK A01 T03361024  RH  010%=      5-min Rain = 0
KVA1 231954Z 27004KT 34/M03 A2998 RMK A01 T03351031  RH  009%=      5-min Rain = 0
KVA1 231955Z 20003KT 33/M03 A2998 RMK A01 T03331033  RH  009%=      5-min Rain = 0
KVA1 231956Z 23005KT 33/M03 A2998 RMK A01 T03331029  RH  010%=      5-min Rain = 0
KVA1 231957Z 26008KT 34/M03 A2998 RMK A01 T03371025  RH  010%=      5-min Rain = 0
KVA1 231958Z 27007G12KT 34/M03 A2998 RMK A01 T03401025  RH  010%=      5-min Rain = 0
KVA1 231959Z 28007KT 34/M03 A2998 RMK A01 T03371029  RH  009%=      5-min Rain = 0
KVA1 232000Z 27006KT 33/M03 A2998 RMK A01 T03321032  RH  010%=      5-min Rain = 0
KVA1 232001Z 31007KT 33/M03 A2998 RMK A01 T03311031  RH  010%=      5-min Rain = 0
KVA1 232002Z 34005KT 33/M03 A2998 RMK A01 T03311032  RH  009%=      5-min Rain = 0
KVA1 232003Z 33005KT 34/M03 A2997 RMK A01 T03351029  RH  009%=      5-min Rain = 0
KVA1 232004Z 28009G15KT 34/M03 A2997 RMK A01 T03411026  RH  009%=      5-min Rain = 0
KVA1 232005Z 26014KT 35/M03 A2997 RMK A01 T03461033  RH  009%=      5-min Rain = 0
KVA1 232006Z 26013KT 35/M04 A2998 RMK A01 T03461038  RH  008%=      5-min Rain = 0
KVA1 232007Z 28010KT 34/M04 A2998 RMK A01 T03421041  RH  008%=      5-min Rain = 0
KVA1 232008Z 28008KT 34/M04 A2997 RMK A01 T03401040  RH  009%=      5-min Rain = 0
KVA1 232009Z 24009KT 34/M04 A2997 RMK A01 T03371042  RH  009%=      5-min Rain = 0
KVA1 232010Z 25009KT 34/M04 A2997 RMK A01 T03371043  RH  009%=      5-min Rain = 0
KVA1 232011Z 27012G20KT 34/M04 A2997 RMK A01 T03351044  RH  009%=      5-min Rain = 0
KVA1 232012Z 28013KT 34/M04 A2997 RMK A01 T03381039  RH  009%=      5-min Rain = 0
KVA1 232013Z 27013KT 34/M04 A2997 RMK A01 T03411040  RH  009%=      5-min Rain = 0
KVA1 232014Z 29011KT 34/M04 A2997 RMK A01 T03381041  RH  009%=      5-min Rain = 0
KVA1 232015Z 28010KT 34/M04 A2997 RMK A01 T03371040  RH  009%=      5-min Rain = 0
KVA1 232016Z 28010G15KT 33/M04 A2997 RMK A01 T03341040  RH  009%=      5-min Rain = 0
KVA1 232017Z 29014G19KT 34/M03 A2997 RMK A01 T03371034  RH  009%=      5-min Rain = 0
KVA1 232018Z 28015KT 34/M03 A2997 RMK A01 T03401034  RH  009%=      5-min Rain = 0
KVA1 232019Z 29014G19KT 34/M03 A2997 RMK A01 T03421033  RH  009%=      5-min Rain = 0
KVA1 232020Z 28013KT 34/M03 A2997 RMK A01 T03411032  RH  009%=      5-min Rain = 0
KVA1 232021Z 28014KT 34/M04 A2997 RMK A01 T03411036  RH  009%=      5-min Rain = 0
KVA1 232022Z 28018KT 34/M04 A2997 RMK A01 T03391043  RH  008%=      5-min Rain = 0
KVA1 232023Z 28016KT 34/M04 A2998 RMK A01 T03361044  RH  009%=      5-min Rain = 0
KVA1 232024Z 29011KT 34/M04 A2998 RMK A01 T03361040  RH  009%=      5-min Rain = 0
KVA1 232025Z 31009KT 34/M04 A2997 RMK A01 T03371040  RH  009%=      5-min Rain = 0
KVA1 232026Z 32007G12KT 33/M04 A2997 RMK A01 T03341044  RH  009%=      5-min Rain = 0
KVA1 232027Z 32010KT 33/M05 A2997 RMK A01 T03331045  RH  009%=      5-min Rain = 0
KVA1 232028Z 29010G15KT 33/M04 A2997 RMK A01 T03341042  RH  009%=      5-min Rain = 0
KVA1 232029Z 27013KT 34/M04 A2997 RMK A01 T03391040  RH  009%=      5-min Rain = 0
KVA1 232030Z 27013KT 34/M05 A2998 RMK A01 T03411045  RH  008%=      5-min Rain = 0
KVA1 232031Z 28012KT 34/M04 A2998 RMK A01 T03391044  RH  008%=      5-min Rain = 0
KVA1 232032Z 27009KT 34/M04 A2998 RMK A01 T03371040  RH  009%=      5-min Rain = 0
KVA1 232033Z 24008KT 34/M04 A2997 RMK A01 T03381036  RH  009%=      5-min Rain = 0
KVA1 232034Z 27007KT 34/M04 A2997 RMK A01 T03391035  RH  009%=      5-min Rain = 0
KVA1 232035Z 29006KT 34/M04 A2997 RMK A01 T03401035  RH  009%=      5-min Rain = 0
KVA1 232036Z 25006KT 34/M04 A2997 RMK A01 T03381035  RH  009%=      5-min Rain = 0
KVA1 232037Z 21002KT 34/M03 A2997 RMK A01 T03381034  RH  009%=      5-min Rain = 0
KVA1 232038Z 09002KT 34/M04 A2997 RMK A01 T03381036  RH  009%=      5-min Rain = 0
KVA1 232039Z 11001KT 33/M04 A2997 RMK A01 T03341037  RH  009%=      5-min Rain = 0
KVA1 232040Z 20004KT 33/M04 A2997 RMK A01 T03321036  RH  009%=      5-min Rain = 0
KVA1 232041Z 18001KT 33/M04 A2997 RMK A01 T03291037  RH  009%=      5-min Rain = 0
KVA1 232042Z 22001KT 33/M04 A2997 RMK A01 T03291035  RH  009%=      5-min Rain = 0
KVA1 232043Z 26004KT 33/M03 A2997 RMK A01 T03321033  RH  009%=      5-min Rain = 0
KVA1 232044Z 24004KT 34/M03 A2997 RMK A01 T03351034  RH  009%=      5-min Rain = 0
KVA1 232045Z 25005KT 34/M03 A2996 RMK A01 T03351034  RH  009%=      5-min Rain = 0
KVA1 232046Z 26006KT 34/M03 A2996 RMK A01 T03391031  RH  009%=      5-min Rain = 0
KVA1 232047Z 24010KT 35/M03 A2996 RMK A01 T03461030  RH  009%=      5-min Rain = 0
KVA1 232048Z 26011KT 35/M04 A2996 RMK A01 T03471035  RH  009%=      5-min Rain = 0
KVA1 232049Z 26015KT 35/M04 A2996 RMK A01 T03461036  RH  009%=      5-min Rain = 0
KVA1 232050Z 26013G18KT 34/M04 A2996 RMK A01 T03441039  RH  008%=      5-min Rain = 0
KVA1 232051Z 25013KT 34/M04 A2996 RMK A01 T03421040  RH  008%=      5-min Rain = 0
KVA1 232052Z 27012KT 35/M04 A2996 RMK A01 T03461040  RH  008%=      5-min Rain = 0
KVA1 232053Z 26015G20KT 35/M04 A2996 RMK A01 T03491039  RH  008%=      5-min Rain = 0
KVA1 232054Z 28013KT 35/M04 A2997 RMK A01 T03481041  RH  008%=      5-min Rain = 0
KVA1 232055Z 28010KT 35/M04 A2997 RMK A01 T03481040  RH  008%=      5-min Rain = 0
KVA1 232056Z 26010KT 35/M04 A2997 RMK A01 T03501037  RH  008%=      5-min Rain = 0
KVA1 232057Z 24010KT 35/M04 A2997 RMK A01 T03501039  RH  008%=      5-min Rain = 0
KVA1 232058Z 25011KT 35/M04 A2997 RMK A01 T03481042  RH  008%=      5-min Rain = 0
KVA1 232059Z 24009KT 35/M04 A2997 RMK A01 T03451043  RH  008%=      5-min Rain = 0
KVA1 232100Z 24007KT 34/M04 A2996 RMK A01 T03431043  RH  008%=      5-min Rain = 0
KVA1 232101Z 26008KT 34/M05 A2997 RMK A01 T03421047  RH  008%=      5-min Rain = 0
KVA1 232102Z 26005KT 34/M05 A2996 RMK A01 T03401046  RH  008%=      5-min Rain = 0
KVA1 232103Z 28011KT 34/M04 A2996 RMK A01 T03441038  RH  008%=      5-min Rain = 0
KVA1 232104Z 28008KT 35/M04 A2996 RMK A01 T03451036  RH  009%=      5-min Rain = 0
KVA1 232105Z 30006KT 34/M04 A2996 RMK A01 T03441038  RH  008%=      5-min Rain = 0
KVA1 232106Z 30007KT 34/M04 A2996 RMK A01 T03431040  RH  008%=      5-min Rain = 0
KVA1 232107Z 32002KT 34/M04 A2996 RMK A01 T03381043  RH  008%=      5-min Rain = 0
KVA1 232108Z 28004G12KT 34/M04 A2996 RMK A01 T03371040  RH  009%=      5-min Rain = 0
KVA1 232109Z 30009KT 34/M04 A2996 RMK A01 T03411040  RH  009%=      5-min Rain = 0
KVA1 232110Z 32009KT 34/M04 A2996 RMK A01 T03421044  RH  008%=      5-min Rain = 0
KVA1 232111Z 32008KT 34/M05 A2996 RMK A01 T03371049  RH  008%=      5-min Rain = 0
KVA1 232112Z 32004KT 33/M04 A2996 RMK A01 T03341041  RH  009%=      5-min Rain = 0
KVA1 232113Z 34007KT 34/M04 A2996 RMK A01 T03361039  RH  009%=      5-min Rain = 0
KVA1 232114Z 33005KT 34/M04 A2996 RMK A01 T03361043  RH  009%=      5-min Rain = 0
KVA1 232115Z 26008KT 34/M03 A2996 RMK A01 T03371031  RH  009%=      5-min Rain = 0
KVA1 232116Z 24012KT 34/M03 A2996 RMK A01 T03431026  RH  009%=      5-min Rain = 0
KVA1 232117Z 26009KT 34/M03 A2996 RMK A01 T03441028  RH  009%=      5-min Rain = 0
KVA1 232118Z 27008KT 34/M03 A2996 RMK A01 T03431029  RH  009%=      5-min Rain = 0
KVA1 232119Z 30006KT 34/M03 A2996 RMK A01 T03441026  RH  009%=      5-min Rain = 0
KVA1 232120Z 33003KT 35/M03 A2995 RMK A01 T03461025  RH  009%=      5-min Rain = 0
KVA1 232121Z 30004KT 35/M03 A2995 RMK A01 T03461027  RH  009%=      5-min Rain = 0
KVA1 232122Z 29005KT 35/M03 A2996 RMK A01 T03461026  RH  009%=      5-min Rain = 0
KVA1 232123Z 32003KT 35/M03 A2995 RMK A01 T03461026  RH  009%=      5-min Rain = 0
KVA1 232124Z 01002KT 35/M03 A2995 RMK A01 T03451028  RH  009%=      5-min Rain = 0
KVA1 232125Z 27001G6KT 34/M03 A2995 RMK A01 T03421030  RH  009%=      5-min Rain = 0
KVA1 232126Z 28006KT 34/M03 A2995 RMK A01 T03411027  RH  009%=      5-min Rain = 0
KVA1 232127Z 29008KT 34/M02 A2995 RMK A01 T03431022  RH  010%=      5-min Rain = 0
KVA1 232128Z 27009G14KT 35/M02 A2995 RMK A01 T03471021  RH  009%=      5-min Rain = 0
KVA1 232129Z 26007KT 35/M02 A2995 RMK A01 T03521022  RH  009%=      5-min Rain = 0
KVA1 232130Z 28008KT 35/M03 A2995 RMK A01 T03521026  RH  009%=      5-min Rain = 0
KVA1 232131Z 26005KT 35/M03 A2995 RMK A01 T03461027  RH  009%=      5-min Rain = 0
KVA1 232132Z 26011KT 35/M03 A2995 RMK A01 T03491025  RH  009%=      5-min Rain = 0
KVA1 232133Z 25014KT 35/M03 A2995 RMK A01 T03501029  RH  009%=      5-min Rain = 0
KVA1 232134Z 25016KT 35/M03 A2995 RMK A01 T03471030  RH  009%=      5-min Rain = 0
KVA1 232135Z 24015KT 34/M03 A2995 RMK A01 T03441031  RH  009%=      5-min Rain = 0
KVA1 232136Z 25014KT 34/M03 A2995 RMK A01 T03441032  RH  009%=      5-min Rain = 0
KVA1 232137Z 24013G18KT 34/M03 A2995 RMK A01 T03431032  RH  009%=      5-min Rain = 0
KVA1 232138Z 24011KT 34/M03 A2995 RMK A01 T03431031  RH  009%=      5-min Rain = 0
KVA1 232139Z 23009KT 34/M03 A2995 RMK A01 T03411031  RH  009%=      5-min Rain = 0
KVA1 232140Z 21006KT 34/M03 A2994 RMK A01 T03391033  RH  009%=      5-min Rain = 0
KVA1 232141Z 20007KT 34/M03 A2994 RMK A01 T03371031  RH  009%=      5-min Rain = 0
KVA1 232142Z 22010KT 34/M03 A2994 RMK A01 T03391028  RH  009%=      5-min Rain = 0
KVA1 232143Z 22012KT 34/M03 A2994 RMK A01 T03421032  RH  009%=      5-min Rain = 0
KVA1 232144Z 24008KT 34/M03 A2995 RMK A01 T03411031  RH  009%=      5-min Rain = 0
KVA1 232145Z 25010KT 34/M03 A2995 RMK A01 T03431030  RH  009%=      5-min Rain = 0
KVA1 232146Z 25007KT 35/M03 A2995 RMK A01 T03471033  RH  009%=      5-min Rain = 0
KVA1 232147Z 20008KT 34/M04 A2994 RMK A01 T03441041  RH  008%=      5-min Rain = 0
KVA1 232148Z 25011KT 34/M03 A2994 RMK A01 T03411034  RH  009%=      5-min Rain = 0
KVA1 232149Z 27011KT 34/M04 A2995 RMK A01 T03441039  RH  008%=      5-min Rain = 0
KVA1 232150Z 28010KT 34/M04 A2995 RMK A01 T03431043  RH  008%=      5-min Rain = 0
KVA1 232151Z 28010KT 35/M04 A2995 RMK A01 T03451041  RH  008%=      5-min Rain = 0
KVA1 232152Z 29010KT 35/M05 A2994 RMK A01 T03461048  RH  008%=      5-min Rain = 0
KVA1 232153Z 31010KT 34/M05 A2994 RMK A01 T03421051  RH  008%=      5-min Rain = 0
KVA1 232154Z 31009KT 34/M05 A2994 RMK A01 T03381054  RH  008%=      5-min Rain = 0
KVA1 232155Z 31007KT 34/M05 A2994 RMK A01 T03371049  RH  008%=      5-min Rain = 0
KVA1 232156Z 27007KT 34/M05 A2994 RMK A01 T03371048  RH  008%=      5-min Rain = 0
KVA1 232157Z 25014KT 34/M04 A2994 RMK A01 T03411038  RH  009%=      5-min Rain = 0
KVA1 232158Z 24012KT 35/M04 A2994 RMK A01 T03451040  RH  008%=      5-min Rain = 0
KVA1 232159Z 25011KT 34/M04 A2994 RMK A01 T03421042  RH  008%=      5-min Rain = 0
KVA1 232200Z 27011KT 34/M04 A2994 RMK A01 T03421041  RH  008%=      5-min Rain = 0
KVA1 232201Z 27009KT 34/M04 A2994 RMK A01 T03421044  RH  008%=      5-min Rain = 0
KVA1 232202Z 26008G13KT 34/M04 A2994 RMK A01 T03401044  RH  008%=      5-min Rain = 0
KVA1 232203Z 27006KT 34/M04 A2994 RMK A01 T03371044  RH  008%=      5-min Rain = 0
KVA1 232204Z 24010KT 34/M04 A2994 RMK A01 T03391039  RH  009%=      5-min Rain = 0
KVA1 232205Z 24009KT 34/M04 A2994 RMK A01 T03421038  RH  009%=      5-min Rain = 0
KVA1 232206Z 25012KT 34/M04 A2994 RMK A01 T03431036  RH  009%=      5-min Rain = 0
KVA1 232207Z 24010KT 34/M04 A2994 RMK A01 T03431037  RH  009%=      5-min Rain = 0
KVA1 232208Z 22006KT 34/M04 A2994 RMK A01 T03431038  RH  009%=      5-min Rain = 0
KVA1 232209Z 28005G13KT 34/M04 A2994 RMK A01 T03421038  RH  009%=      5-min Rain = 0
KVA1 232210Z 28010KT 34/M04 A2994 RMK A01 T03431036  RH  009%=      5-min Rain = 0
KVA1 232211Z 28008G13KT 34/M04 A2994 RMK A01 T03441035  RH  009%=      5-min Rain = 0
KVA1 232212Z 31005KT 34/M04 A2994 RMK A01 T03421036  RH  009%=      5-min Rain = 0
KVA1 232213Z 33005KT 34/M04 A2994 RMK A01 T03411035  RH  009%=      5-min Rain = 0
KVA1 232214Z 35006KT 34/M04 A2993 RMK A01 T03401035  RH  009%=      5-min Rain = 0
KVA1 232215Z 30006KT 34/M03 A2993 RMK A01 T03381034  RH  009%=      5-min Rain = 0
KVA1 232216Z 31006KT 34/M03 A2994 RMK A01 T03401031  RH  009%=      5-min Rain = 0
KVA1 232217Z 28007KT 34/M03 A2994 RMK A01 T03431029  RH  009%=      5-min Rain = 0
KVA1 232218Z 23008KT 34/M03 A2994 RMK A01 T03441032  RH  009%=      5-min Rain = 0
KVA1 232219Z 26009G15KT 35/M03 A2993 RMK A01 T03451033  RH  009%=      5-min Rain = 0
KVA1 232220Z 26007G13KT 34/M03 A2993 RMK A01 T03441029  RH  009%=      5-min Rain = 0
KVA1 232221Z 26011KT 35/M03 A2994 RMK A01 T03471031  RH  009%=      5-min Rain = 0
KVA1 232222Z 27007KT 34/M04 A2994 RMK A01 T03421035  RH  009%=      5-min Rain = 0
KVA1 232223Z 23005KT 34/M03 A2993 RMK A01 T03401034  RH  009%=      5-min Rain = 0
KVA1 232224Z 27003KT 34/M03 A2993 RMK A01 T03391034  RH  009%=      5-min Rain = 0
KVA1 232225Z 31005KT 34/M03 A2993 RMK A01 T03381032  RH  009%=      5-min Rain = 0
KVA1 232226Z 28007KT 34/M03 A2993 RMK A01 T03411030  RH  009%=      5-min Rain = 0
KVA1 232227Z 31001KT 34/M03 A2993 RMK A01 T03391033  RH  009%=      5-min Rain = 0
KVA1 232228Z 29005KT 34/M03 A2994 RMK A01 T03381032  RH  009%=      5-min Rain = 0
KVA1 232229Z 27010KT 34/M03 A2994 RMK A01 T03381030  RH  009%=      5-min Rain = 0
KVA1 232230Z 27012KT 34/M03 A2994 RMK A01 T03391028  RH  009%=      5-min Rain = 0
KVA1 232231Z 29013KT 34/M03 A2994 RMK A01 T03401026  RH  009%=      5-min Rain = 0
KVA1 232232Z 28009KT 34/M03 A2994 RMK A01 T03411028  RH  009%=      5-min Rain = 0
KVA1 232233Z 23007KT 34/M03 A2993 RMK A01 T03411029  RH  009%=      5-min Rain = 0
KVA1 232234Z 23005KT 34/M03 A2993 RMK A01 T03401031  RH  009%=      5-min Rain = 0
KVA1 232235Z 24008KT 34/M03 A2993 RMK A01 T03401027  RH  009%=      5-min Rain = 0
KVA1 232236Z 23004KT 34/M03 A2993 RMK A01 T03421028  RH  009%=      5-min Rain = 0
KVA1 232237Z 23007G13KT 34/M03 A2993 RMK A01 T03401028  RH  009%=      5-min Rain = 0
KVA1 232238Z 22011KT 34/M03 A2993 RMK A01 T03411030  RH  009%=      5-min Rain = 0
KVA1 232239Z 23009KT 34/M03 A2993 RMK A01 T03411034  RH  009%=      5-min Rain = 0
KVA1 232240Z 26006KT 34/M04 A2993 RMK A01 T03411035  RH  009%=      5-min Rain = 0
KVA1 232241Z 25012G19KT 34/M04 A2993 RMK A01 T03411035  RH  009%=      5-min Rain = 0
KVA1 232242Z 26013KT 34/M03 A2993 RMK A01 T03421034  RH  009%=      5-min Rain = 0
KVA1 232243Z 26012KT 34/M04 A2993 RMK A01 T03441035  RH  009%=      5-min Rain = 0
KVA1 232244Z 27010KT 34/M04 A2993 RMK A01 T03431036  RH  009%=      5-min Rain = 0
KVA1 232245Z 28008KT 34/M04 A2993 RMK A01 T03421037  RH  009%=      5-min Rain = 0
KVA1 232246Z 27008KT 34/M04 A2993 RMK A01 T03381040  RH  009%=      5-min Rain = 0
KVA1 232247Z 28010G18KT 34/M04 A2993 RMK A01 T03381037  RH  009%=      5-min Rain = 0
KVA1 232248Z 27013G18KT 34/M04 A2993 RMK A01 T03421036  RH  009%=      5-min Rain = 0
KVA1 232249Z 28012G17KT 34/M04 A2993 RMK A01 T03431035  RH  009%=      5-min Rain = 0
KVA1 232250Z 29011G17KT 34/M03 A2993 RMK A01 T03441034  RH  009%=      5-min Rain = 0
KVA1 232251Z 28009KT 34/M03 A2993 RMK A01 T03431033  RH  009%=      5-min Rain = 0
KVA1 232252Z 29011KT 34/M03 A2993 RMK A01 T03441031  RH  009%=      5-min Rain = 0
KVA1 232253Z 28011G16KT 34/M03 A2993 RMK A01 T03441032  RH  009%=      5-min Rain = 0
KVA1 232254Z 30011KT 34/M03 A2993 RMK A01 T03431031  RH  009%=      5-min Rain = 0
KVA1 232255Z 30013KT 34/M03 A2993 RMK A01 T03441029  RH  009%=      5-min Rain = 0
KVA1 232256Z 29013KT 34/M03 A2993 RMK A01 T03421031  RH  009%=      5-min Rain = 0
KVA1 232257Z 30009KT 34/M03 A2993 RMK A01 T03381033  RH  009%=      5-min Rain = 0
KVA1 232258Z 29008KT 34/M03 A2993 RMK A01 T03361032  RH  009%=      5-min Rain = 0
KVA1 232259Z 31006KT 34/M03 A2993 RMK A01 T03371031  RH  009%=      5-min Rain = 0
KVA1 232300Z 27007G12KT 34/M03 A2993 RMK A01 T03381030  RH  009%=      5-min Rain = 0
KVA1 232301Z 29007KT 34/M03 A2993 RMK A01 T03401027  RH  009%=      5-min Rain = 0
KVA1 232302Z 30007KT 34/M03 A2993 RMK A01 T03431027  RH  009%=      5-min Rain = 0
KVA1 232303Z 28009KT 34/M03 A2993 RMK A01 T03441028  RH  009%=      5-min Rain = 0
KVA1 232304Z 28015KT 34/M03 A2993 RMK A01 T03421031  RH  009%=      5-min Rain = 0
KVA1 232305Z 28012KT 34/M03 A2993 RMK A01 T03401033  RH  009%=      5-min Rain = 0
KVA1 232306Z 28014KT 34/M03 A2993 RMK A01 T03401033  RH  009%=      5-min Rain = 0
KVA1 232307Z 28013KT 34/M03 A2993 RMK A01 T03401031  RH  009%=      5-min Rain = 0
KVA1 232308Z 28011KT 34/M03 A2993 RMK A01 T03391031  RH  009%=      5-min Rain = 0
KVA1 232309Z 28009KT 34/M03 A2993 RMK A01 T03391031  RH  009%=      5-min Rain = 0
KVA1 232310Z 28009KT 34/M03 A2993 RMK A01 T03391029  RH  009%=      5-min Rain = 0
KVA1 232311Z 28007KT 34/M03 A2993 RMK A01 T03391031  RH  009%=      5-min Rain = 0
KVA1 232312Z 26006KT 34/M03 A2992 RMK A01 T03371032  RH  009%=      5-min Rain = 0
KVA1 232313Z 27005KT 34/M03 A2992 RMK A01 T03371030  RH  009%=      5-min Rain = 0
KVA1 232314Z 30010KT 34/M03 A2992 RMK A01 T03391028  RH  009%=      5-min Rain = 0
KVA1 232315Z 30011G16KT 34/M03 A2992 RMK A01 T03421028  RH  009%=      5-min Rain = 0
KVA1 232316Z 29009KT 34/M03 A2992 RMK A01 T03401030  RH  009%=      5-min Rain = 0
KVA1 232317Z 31009KT 34/M03 A2992 RMK A01 T03391028  RH  009%=      5-min Rain = 0
KVA1 232318Z 29008KT 34/M02 A2992 RMK A01 T03411024  RH  010%=      5-min Rain = 0
KVA1 232319Z 27008KT 35/M02 A2992 RMK A01 T03461021  RH  010%=      5-min Rain = 0
KVA1 232320Z 28010G16KT 35/M02 A2992 RMK A01 T03461024  RH  009%=      5-min Rain = 0
KVA1 232321Z 31007KT 34/M03 A2992 RMK A01 T03421025  RH  009%=      5-min Rain = 0
KVA1 232322Z 32005KT 34/M02 A2992 RMK A01 T03401024  RH  010%=      5-min Rain = 0
KVA1 232323Z 32005KT 34/M02 A2992 RMK A01 T03391024  RH  010%=      5-min Rain = 0
KVA1 232324Z 30006KT 34/M02 A2992 RMK A01 T03381024  RH  010%=      5-min Rain = 0
KVA1 232325Z 30006KT 34/M02 A2992 RMK A01 T03391022  RH  010%=      5-min Rain = 0
KVA1 232326Z 30009KT 34/M02 A2992 RMK A01 T03401024  RH  010%=      5-min Rain = 0
KVA1 232327Z 32009KT 34/M03 A2992 RMK A01 T03381025  RH  010%=      5-min Rain = 0
KVA1 232328Z 32008KT 34/M03 A2992 RMK A01 T03381025  RH  010%=      5-min Rain = 0
KVA1 232329Z 31010G16KT 34/M02 A2992 RMK A01 T03391024  RH  010%=      5-min Rain = 0
KVA1 232330Z 27009KT 34/M02 A2992 RMK A01 T03431023  RH  010%=      5-min Rain = 0
KVA1 232331Z 28011KT 35/M02 A2992 RMK A01 T03451023  RH  009%=      5-min Rain = 0
KVA1 232332Z 30012KT 35/M02 A2992 RMK A01 T03451022  RH  009%=      5-min Rain = 0
KVA1 232333Z 29015KT 34/M02 A2992 RMK A01 T03441023  RH  009%=      5-min Rain = 0
KVA1 232334Z 27014KT 34/M02 A2992 RMK A01 T03441024  RH  009%=      5-min Rain = 0
KVA1 232335Z 26011KT 34/M02 A2992 RMK A01 T03441024  RH  009%=      5-min Rain = 0
KVA1 232336Z 28013KT 34/M02 A2992 RMK A01 T03441024  RH  009%=      5-min Rain = 0
KVA1 232337Z 28013KT 34/M02 A2992 RMK A01 T03441024  RH  009%=      5-min Rain = 0
KVA1 232338Z 27010KT 34/M03 A2992 RMK A01 T03431025  RH  009%=      5-min Rain = 0
KVA1 232339Z 27011KT 34/M03 A2992 RMK A01 T03421025  RH  009%=      5-min Rain = 0
KVA1 232340Z 28009KT 34/M03 A2992 RMK A01 T03401026  RH  010%=      5-min Rain = 0
KVA1 232341Z 28007KT 34/M02 A2992 RMK A01 T03401023  RH  010%=      5-min Rain = 0
KVA1 232342Z 28007KT 34/M02 A2992 RMK A01 T03411024  RH  010%=      5-min Rain = 0
KVA1 232343Z 27007KT 34/M02 A2992 RMK A01 T03401023  RH  010%=      5-min Rain = 0
KVA1 232344Z 28008KT 34/M02 A2992 RMK A01 T03411023  RH  010%=      5-min Rain = 0
KVA1 232345Z 29006KT 34/M02 A2992 RMK A01 T03411024  RH  010%=      5-min Rain = 0
KVA1 232346Z 25006KT 34/M02 A2992 RMK A01 T03421022  RH  010%=      5-min Rain = 0
KVA1 232347Z 26006KT 34/M02 A2992 RMK A01 T03441022  RH  010%=      5-min Rain = 0
KVA1 232348Z 28007KT 35/M02 A2992 RMK A01 T03451024  RH  009%=      5-min Rain = 0
KVA1 232349Z 25014KT 34/M03 A2992 RMK A01 T03441025  RH  009%=      5-min Rain = 0
KVA1 232350Z 27015KT 34/M03 A2991 RMK A01 T03441026  RH  009%=      5-min Rain = 0
KVA1 232351Z 27013KT 34/M03 A2992 RMK A01 T03431029  RH  009%=      5-min Rain = 0
KVA1 232352Z 27015KT 34/M03 A2992 RMK A01 T03421029  RH  009%=      5-min Rain = 0
KVA1 232353Z 28017G22KT 34/M03 A2992 RMK A01 T03401029  RH  009%=      5-min Rain = 0
KVA1 232354Z 28017G24KT 34/M03 A2992 RMK A01 T03391027  RH  009%=      5-min Rain = 0
KVA1 232355Z 28014G19KT 34/M03 A2992 RMK A01 T03381025  RH  010%=      5-min Rain = 0
KVA1 232356Z 29013KT 34/M02 A2992 RMK A01 T03391024  RH  010%=      5-min Rain = 0
KVA1 232357Z 29014KT 34/M03 A2992 RMK A01 T03391025  RH  010%=      5-min Rain = 0
KVA1 232358Z 29009KT 34/M03 A2992 RMK A01 T03381027  RH  010%=      5-min Rain = 0
KVA1 232359Z 29013KT 34/M03 A2992 RMK A01 T03381028  RH  009%=      5-min Rain = 0
KVA1 240000Z 29012KT 34/M03 A2992 RMK A01 T03371030  RH  009%=      5-min Rain = 0
KVA1 240001Z 29010KT 34/M03 A2992 RMK A01 T03361029  RH  009%=      5-min Rain = 0
KVA1 240002Z 28009KT 34/M03 A2992 RMK A01 T03351029  RH  010%=      5-min Rain = 0
KVA1 240003Z 30013KT 34/M03 A2992 RMK A01 T03381026  RH  010%=      5-min Rain = 0
KVA1 240004Z 29014KT 34/M03 A2992 RMK A01 T03371028  RH  010%=      5-min Rain = 0
KVA1 240005Z 28013G19KT 34/M03 A2992 RMK A01 T03371029  RH  009%=      5-min Rain = 0
KVA1 240006Z 28014KT 34/M03 A2992 RMK A01 T03371031  RH  009%=      5-min Rain = 0
KVA1 240007Z 29013KT 34/M03 A2992 RMK A01 T03371031  RH  009%=      5-min Rain = 0
KVA1 240008Z 30017KT 34/M03 A2992 RMK A01 T03361031  RH  009%=      5-min Rain = 0
KVA1 240009Z 28015KT 34/M03 A2992 RMK A01 T03351031  RH  009%=      5-min Rain = 0
KVA1 240010Z 28011KT 33/M03 A2992 RMK A01 T03341031  RH  010%=      5-min Rain = 0
KVA1 240011Z 28015KT 33/M03 A2992 RMK A01 T03341028  RH  010%=      5-min Rain = 0
KVA1 240012Z 28017KT 34/M03 A2992 RMK A01 T03351029  RH  010%=      5-min Rain = 0
KVA1 240013Z 27012KT 33/M03 A2992 RMK A01 T03331029  RH  010%=      5-min Rain = 0
KVA1 240014Z 28012KT 33/M03 A2992 RMK A01 T03331028  RH  010%=      5-min Rain = 0
KVA1 240015Z 27008KT 33/M03 A2992 RMK A01 T03331029  RH  010%=      5-min Rain = 0
KVA1 240016Z 29012KT 34/M03 A2992 RMK A01 T03361026  RH  010%=      5-min Rain = 0
KVA1 240017Z 29013KT 34/M03 A2992 RMK A01 T03371028  RH  010%=      5-min Rain = 0
KVA1 240018Z 28011KT 34/M03 A2992 RMK A01 T03361030  RH  009%=      5-min Rain = 0
KVA1 240019Z 28010KT 33/M03 A2992 RMK A01 T03341031  RH  009%=      5-min Rain = 0
KVA1 240020Z 30007KT 33/M03 A2992 RMK A01 T03321031  RH  010%=      5-min Rain = 0
KVA1 240021Z 31006KT 33/M03 A2992 RMK A01 T03331028  RH  010%=      5-min Rain = 0
KVA1 240022Z 30008KT 34/M03 A2992 RMK A01 T03351028  RH  010%=      5-min Rain = 0
KVA1 240023Z 30009KT 34/M03 A2992 RMK A01 T03351028  RH  010%=      5-min Rain = 0
KVA1 240024Z 28006KT 33/M03 A2992 RMK A01 T03341029  RH  010%=      5-min Rain = 0
KVA1 240025Z 33007KT 33/M03 A2992 RMK A01 T03331027  RH  010%=      5-min Rain = 0
KVA1 240026Z 32006KT 33/M03 A2992 RMK A01 T03331027  RH  010%=      5-min Rain = 0
KVA1 240027Z 27013KT 33/M03 A2992 RMK A01 T03341027  RH  010%=      5-min Rain = 0
KVA1 240028Z 27014KT 34/M03 A2992 RMK A01 T03351029  RH  010%=      5-min Rain = 0
KVA1 240029Z 28013KT 33/M03 A2992 RMK A01 T03341030  RH  010%=      5-min Rain = 0
KVA1 240030Z 27010KT 33/M03 A2992 RMK A01 T03331030  RH  010%=      5-min Rain = 0
KVA1 240031Z 26009KT 33/M03 A2992 RMK A01 T03331029  RH  010%=      5-min Rain = 0
KVA1 240032Z 27011KT 33/M03 A2992 RMK A01 T03341028  RH  010%=      5-min Rain = 0
KVA1 240033Z 28013G18KT 34/M03 A2992 RMK A01 T03351028  RH  010%=      5-min Rain = 0
KVA1 240034Z 28010KT 34/M03 A2992 RMK A01 T03351028  RH  010%=      5-min Rain = 0
KVA1 240035Z 28009KT 34/M03 A2992 RMK A01 T03361027  RH  010%=      5-min Rain = 0
KVA1 240036Z 29009KT 34/M03 A2992 RMK A01 T03371030  RH  009%=      5-min Rain = 0
KVA1 240037Z 29012KT 34/M03 A2992 RMK A01 T03351031  RH  009%=      5-min Rain = 0
KVA1 240038Z 28010KT 33/M03 A2992 RMK A01 T03331031  RH  009%=      5-min Rain = 0
KVA1 240039Z 27008KT 33/M03 A2992 RMK A01 T03331031  RH  010%=      5-min Rain = 0
KVA1 240040Z 29008KT 33/M03 A2992 RMK A01 T03321031  RH  010%=      5-min Rain = 0
KVA1 240041Z 29007KT 33/M03 A2992 RMK A01 T03321031  RH  010%=      5-min Rain = 0
KVA1 240042Z 28004KT 33/M03 A2992 RMK A01 T03321031  RH  010%=      5-min Rain = 0
KVA1 240043Z 29005KT 33/M03 A2992 RMK A01 T03331030  RH  010%=      5-min Rain = 0
KVA1 240044Z 29004KT 33/M03 A2992 RMK A01 T03331031  RH  010%=      5-min Rain = 0
KVA1 240045Z 30009G14KT 33/M03 A2992 RMK A01 T03331029  RH  010%=      5-min Rain = 0
KVA1 240046Z 31009KT 33/M03 A2992 RMK A01 T03331028  RH  010%=      5-min Rain = 0
KVA1 240047Z 31010KT 33/M03 A2992 RMK A01 T03341028  RH  010%=      5-min Rain = 0
KVA1 240048Z 31008KT 33/M03 A2992 RMK A01 T03321029  RH  010%=      5-min Rain = 0
KVA1 240049Z 30006KT 33/M03 A2992 RMK A01 T03321028  RH  010%=      5-min Rain = 0
KVA1 240050Z 29005KT 33/M03 A2992 RMK A01 T03331027  RH  010%=      5-min Rain = 0
KVA1 240051Z 28007KT 33/M03 A2992 RMK A01 T03331026  RH  010%=      5-min Rain = 0
KVA1 240052Z 28007KT 33/M03 A2992 RMK A01 T03341026  RH  010%=      5-min Rain = 0
KVA1 240053Z 28005KT 33/M03 A2992 RMK A01 T03331027  RH  010%=      5-min Rain = 0
KVA1 240054Z 28006KT 33/M03 A2992 RMK A01 T03331028  RH  010%=      5-min Rain = 0
KVA1 240055Z 29006KT 33/M03 A2992 RMK A01 T03331028  RH  010%=      5-min Rain = 0
KVA1 240056Z 30005KT 33/M03 A2992 RMK A01 T03331029  RH  010%=      5-min Rain = 0
KVA1 240057Z 28005KT 33/M03 A2992 RMK A01 T03331027  RH  010%=      5-min Rain = 0
KVA1 240058Z 29009KT 33/M03 A2992 RMK A01 T03331027  RH  010%=      5-min Rain = 0
KVA1 240059Z 29008KT 33/M03 A2992 RMK A01 T03331028  RH  010%=      5-min Rain = 0
KVA1 240100Z 28010G15KT 33/M03 A2992 RMK A01 T03331030  RH  010%=      5-min Rain = 0
KVA1 240101Z 28007KT 33/M03 A2992 RMK A01 T03321031  RH  010%=      5-min Rain = 0
KVA1 240102Z 27008KT 33/M03 A2992 RMK A01 T03321031  RH  010%=      5-min Rain = 0
KVA1 240103Z 28010KT 33/M03 A2992 RMK A01 T03321032  RH  009%=      5-min Rain = 0
KVA1 240104Z 27010KT 33/M03 A2992 RMK A01 T03311034  RH  009%=      5-min Rain = 0
KVA1 240105Z 28010KT 33/M04 A2992 RMK A01 T03301035  RH  009%=      5-min Rain = 0
KVA1 240106Z 28008KT 33/M03 A2992 RMK A01 T03291034  RH  009%=      5-min Rain = 0
KVA1 240107Z 27011KT 33/M03 A2993 RMK A01 T03291034  RH  009%=      5-min Rain = 0
KVA1 240108Z 27009KT 33/M04 A2993 RMK A01 T03291036  RH  009%=      5-min Rain = 0
KVA1 240109Z 27009KT 33/M04 A2993 RMK A01 T03291036  RH  009%=      5-min Rain = 0
KVA1 240110Z 28008KT 33/M04 A2993 RMK A01 T03291035  RH  009%=      5-min Rain = 0
KVA1 240111Z 28008KT 33/M03 A2993 RMK A01 T03291034  RH  009%=      5-min Rain = 0
KVA1 240112Z 27009KT 33/M04 A2993 RMK A01 T03281035  RH  009%=      5-min Rain = 0
KVA1 240113Z 28009KT 33/M04 A2993 RMK A01 T03281035  RH  009%=      5-min Rain = 0
KVA1 240114Z 27011KT 33/M04 A2993 RMK A01 T03281035  RH  009%=      5-min Rain = 0
KVA1 240115Z 28009KT 33/M04 A2993 RMK A01 T03271036  RH  009%=      5-min Rain = 0
KVA1 240116Z 27008KT 33/M04 A2993 RMK A01 T03271036  RH  009%=      5-min Rain = 0
KVA1 240117Z 27008KT 33/M04 A2993 RMK A01 T03261037  RH  009%=      5-min Rain = 0
KVA1 240118Z 28006KT 33/M04 A2993 RMK A01 T03261036  RH  009%=      5-min Rain = 0
KVA1 240119Z 27005KT 33/M04 A2993 RMK A01 T03271035  RH  010%=      5-min Rain = 0
KVA1 240120Z 28005KT 33/M03 A2993 RMK A01 T03271033  RH  010%=      5-min Rain = 0
KVA1 240121Z 29005KT 33/M03 A2993 RMK A01 T03271034  RH  010%=      5-min Rain = 0
KVA1 240122Z 29007KT 33/M03 A2993 RMK A01 T03271033  RH  010%=      5-min Rain = 0
KVA1 240123Z 29009KT 33/M03 A2993 RMK A01 T03271034  RH  010%=      5-min Rain = 0
KVA1 240124Z 28007KT 33/M04 A2993 RMK A01 T03271035  RH  010%=      5-min Rain = 0
KVA1 240125Z 29005KT 33/M04 A2993 RMK A01 T03261036  RH  010%=      5-min Rain = 0
KVA1 240126Z 27004KT 33/M04 A2993 RMK A01 T03261035  RH  010%=      5-min Rain = 0
KVA1 240127Z 27007KT 33/M04 A2993 RMK A01 T03251035  RH  010%=      5-min Rain = 0
KVA1 240128Z 28007KT 33/M04 A2993 RMK A01 T03251035  RH  010%=      5-min Rain = 0
KVA1 240129Z 27009KT 33/M03 A2993 RMK A01 T03251034  RH  010%=      5-min Rain = 0
KVA1 240130Z 26009KT 32/M03 A2993 RMK A01 T03241034  RH  010%=      5-min Rain = 0
KVA1 240131Z 27008KT 32/M04 A2993 RMK A01 T03241035  RH  010%=      5-min Rain = 0
KVA1 240132Z 26005KT 32/M03 A2993 RMK A01 T03231034  RH  010%=      5-min Rain = 0
KVA1 240133Z 26008KT 32/M03 A2993 RMK A01 T03231034  RH  010%=      5-min Rain = 0
KVA1 240134Z 27007KT 32/M03 A2993 RMK A01 T03231034  RH  010%=      5-min Rain = 0
KVA1 240135Z 27007KT 32/M04 A2993 RMK A01 T03231035  RH  010%=      5-min Rain = 0
KVA1 240136Z 28007KT 32/M03 A2993 RMK A01 T03231034  RH  010%=      5-min Rain = 0
KVA1 240137Z 28008KT 32/M03 A2993 RMK A01 T03221034  RH  010%=      5-min Rain = 0
KVA1 240138Z 29005KT 32/M03 A2993 RMK A01 T03221033  RH  010%=      5-min Rain = 0
KVA1 240139Z 29005KT 32/M03 A2993 RMK A01 T03211033  RH  010%=      5-min Rain = 0
KVA1 240140Z 29005KT 32/M03 A2993 RMK A01 T03211033  RH  010%=      5-min Rain = 0
KVA1 240141Z 29006KT 32/M03 A2993 RMK A01 T03211034  RH  010%=      5-min Rain = 0
KVA1 240142Z 30007KT 32/M03 A2993 RMK A01 T03201034  RH  010%=      5-min Rain = 0
KVA1 240143Z 29006KT 32/M04 A2994 RMK A01 T03201035  RH  010%=      5-min Rain = 0
KVA1 240144Z 29006KT 32/M04 A2994 RMK A01 T03191035  RH  010%=      5-min Rain = 0
KVA1 240145Z 30007KT 32/M04 A2993 RMK A01 T03181035  RH  010%=      5-min Rain = 0
KVA1 240146Z 29008KT 32/M04 A2994 RMK A01 T03181035  RH  010%=      5-min Rain = 0
KVA1 240147Z 29008KT 32/M04 A2994 RMK A01 T03181035  RH  010%=      5-min Rain = 0
KVA1 240148Z 29007KT 32/M04 A2994 RMK A01 T03171035  RH  010%=      5-min Rain = 0
KVA1 240149Z 29006KT 32/M04 A2994 RMK A01 T03171035  RH  010%=      5-min Rain = 0
KVA1 240150Z 29005KT 32/M04 A2994 RMK A01 T03161035  RH  010%=      5-min Rain = 0
KVA1 240151Z 30005KT 32/M04 A2994 RMK A01 T03161035  RH  010%=      5-min Rain = 0
KVA1 240152Z 30005KT 32/M04 A2994 RMK A01 T03151035  RH  010%=      5-min Rain = 0
KVA1 240153Z 30006KT 31/M03 A2994 RMK A01 T03141034  RH  010%=      5-min Rain = 0
KVA1 240154Z 30006KT 31/M03 A2994 RMK A01 T03131034  RH  010%=      5-min Rain = 0
KVA1 240155Z 30007KT 31/M03 A2994 RMK A01 T03121034  RH  010%=      5-min Rain = 0
KVA1 240156Z 30006KT 31/M03 A2994 RMK A01 T03111034  RH  011%=      5-min Rain = 0
KVA1 240157Z 29006KT 31/M03 A2994 RMK A01 T03111034  RH  011%=      5-min Rain = 0
KVA1 240158Z 29007KT 31/M03 A2994 RMK A01 T03101033  RH  011%=      5-min Rain = 0
KVA1 240159Z 29007KT 31/M03 A2994 RMK A01 T03091034  RH  011%=      5-min Rain = 0
KVA1 240200Z 29007KT 31/M03 A2994 RMK A01 T03081034  RH  011%=      5-min Rain = 0
KVA1 240201Z 30007KT 31/M03 A2994 RMK A01 T03071033  RH  011%=      5-min Rain = 0
KVA1 240202Z 30007KT 31/M03 A2994 RMK A01 T03071033  RH  011%=      5-min Rain = 0
KVA1 240203Z 30006KT 31/M03 A2994 RMK A01 T03071033  RH  011%=      5-min Rain = 0
KVA1 240204Z 30007KT 31/M03 A2994 RMK A01 T03061033  RH  011%=      5-min Rain = 0
KVA1 240205Z 30006KT 31/M03 A2994 RMK A01 T03061033  RH  011%=      5-min Rain = 0
KVA1 240206Z 30007KT 31/M03 A2994 RMK A01 T03061033  RH  011%=      5-min Rain = 0
KVA1 240207Z 30006KT 31/M03 A2994 RMK A01 T03061034  RH  011%=      5-min Rain = 0
KVA1 240208Z 30005KT 31/M03 A2994 RMK A01 T03061033  RH  011%=      5-min Rain = 0
KVA1 240209Z 29005KT 31/M03 A2994 RMK A01 T03061033  RH  011%=      5-min Rain = 0
KVA1 240210Z 30005KT 31/M03 A2994 RMK A01 T03051034  RH  011%=      5-min Rain = 0
KVA1 240211Z 29005KT 30/M03 A2994 RMK A01 T03041034  RH  011%=      5-min Rain = 0
KVA1 240212Z 29006KT 30/M03 A2994 RMK A01 T03031034  RH  011%=      5-min Rain = 0
KVA1 240213Z 29005KT 30/M03 A2994 RMK A01 T03031033  RH  011%=      5-min Rain = 0
KVA1 240214Z 29006KT 30/M03 A2994 RMK A01 T03021034  RH  011%=      5-min Rain = 0
KVA1 240215Z 28006KT 30/M03 A2994 RMK A01 T03021034  RH  011%=      5-min Rain = 0
KVA1 240216Z 28007KT 30/M03 A2994 RMK A01 T03021034  RH  011%=      5-min Rain = 0
KVA1 240217Z 28006KT 30/M03 A2994 RMK A01 T03011034  RH  011%=      5-min Rain = 0
KVA1 240218Z 29007KT 30/M03 A2994 RMK A01 T03021033  RH  011%=      5-min Rain = 0
KVA1 240219Z 30010KT 30/M03 A2994 RMK A01 T03021033  RH  011%=      5-min Rain = 0
KVA1 240220Z 30008KT 30/M03 A2994 RMK A01 T03021033  RH  011%=      5-min Rain = 0
KVA1 240221Z 31007KT 30/M03 A2994 RMK A01 T03021033  RH  011%=      5-min Rain = 0
KVA1 240222Z 30008KT 30/M03 A2995 RMK A01 T03021033  RH  011%=      5-min Rain = 0
KVA1 240223Z 30008KT 30/M03 A2995 RMK A01 T03021033  RH  011%=      5-min Rain = 0
KVA1 240224Z 31006KT 30/M03 A2995 RMK A01 T03021033  RH  011%=      5-min Rain = 0
KVA1 240225Z 30007KT 30/M03 A2995 RMK A01 T03021033  RH  011%=      5-min Rain = 0
KVA1 240226Z 30006KT 30/M03 A2995 RMK A01 T03011032  RH  011%=      5-min Rain = 0
KVA1 240227Z 30006KT 30/M03 A2995 RMK A01 T03011033  RH  011%=      5-min Rain = 0
KVA1 240228Z 30007KT 30/M03 A2995 RMK A01 T03001033  RH  011%=      5-min Rain = 0
KVA1 240229Z 31007KT 30/M03 A2995 RMK A01 T03001032  RH  011%=      5-min Rain = 0
KVA1 240230Z 30006KT 30/M03 A2995 RMK A01 T03001032  RH  011%=      5-min Rain = 0
KVA1 240231Z 30008KT 30/M03 A2995 RMK A01 T03001032  RH  011%=      5-min Rain = 0
KVA1 240232Z 29006KT 30/M03 A2995 RMK A01 T02991032  RH  011%=      5-min Rain = 0
KVA1 240233Z 30007KT 30/M03 A2995 RMK A01 T02981032  RH  012%=      5-min Rain = 0
KVA1 240234Z 30006KT 30/M03 A2995 RMK A01 T02981032  RH  012%=      5-min Rain = 0
KVA1 240235Z 30007KT 30/M03 A2995 RMK A01 T02981031  RH  012%=      5-min Rain = 0
KVA1 240236Z 30007KT 30/M03 A2995 RMK A01 T02971030  RH  012%=      5-min Rain = 0
KVA1 240237Z 30008KT 30/M03 A2995 RMK A01 T02971031  RH  012%=      5-min Rain = 0
KVA1 240238Z 30008KT 30/M03 A2995 RMK A01 T02971030  RH  012%=      5-min Rain = 0
KVA1 240239Z 30008KT 30/M03 A2995 RMK A01 T02981030  RH  012%=      5-min Rain = 0
KVA1 240240Z 30007KT 30/M03 A2995 RMK A01 T02991030  RH  012%=      5-min Rain = 0
KVA1 240241Z 30007KT 30/M03 A2995 RMK A01 T02991030  RH  012%=      5-min Rain = 0
KVA1 240242Z 29007KT 30/M03 A2995 RMK A01 T02991029  RH  012%=      5-min Rain = 0
KVA1 240243Z 29007KT 30/M03 A2995 RMK A01 T02981030  RH  012%=      5-min Rain = 0
KVA1 240244Z 29008KT 30/M03 A2995 RMK A01 T02971029  RH  012%=      5-min Rain = 0
KVA1 240245Z 30008KT 30/M03 A2995 RMK A01 T02971029  RH  012%=      5-min Rain = 0
KVA1 240246Z 30007KT 30/M03 A2995 RMK A01 T02971029  RH  012%=      5-min Rain = 0
KVA1 240247Z 30007KT 30/M03 A2995 RMK A01 T02971029  RH  012%=      5-min Rain = 0
KVA1 240248Z 31007KT 30/M03 A2995 RMK A01 T02971028  RH  012%=      5-min Rain = 0
KVA1 240249Z 31006KT 30/M03 A2995 RMK A01 T02971028  RH  012%=      5-min Rain = 0
KVA1 240250Z 31006KT 30/M03 A2995 RMK A01 T02961028  RH  012%=      5-min Rain = 0
KVA1 240251Z 31006KT 30/M03 A2995 RMK A01 T02951028  RH  012%=      5-min Rain = 0
KVA1 240252Z 31006KT 30/M03 A2995 RMK A01 T02951028  RH  012%=      5-min Rain = 0
KVA1 240253Z 31006KT 29/M03 A2995 RMK A01 T02941028  RH  012%=      5-min Rain = 0
KVA1 240254Z 32005KT 29/M03 A2996 RMK A01 T02931028  RH  012%=      5-min Rain = 0
KVA1 240255Z 32005KT 29/M03 A2996 RMK A01 T02921028  RH  012%=      5-min Rain = 0
KVA1 240256Z 32004KT 29/M03 A2996 RMK A01 T02911028  RH  012%=      5-min Rain = 0
KVA1 240257Z 32004KT 29/M03 A2996 RMK A01 T02901028  RH  012%=      5-min Rain = 0
KVA1 240258Z 32004KT 29/M03 A2996 RMK A01 T02881028  RH  013%=      5-min Rain = 0
KVA1 240259Z 32004KT 29/M03 A2996 RMK A01 T02871029  RH  013%=      5-min Rain = 0
KVA1 240300Z 32005KT 29/M03 A2996 RMK A01 T02861029  RH  013%=      5-min Rain = 0
KVA1 240301Z 32005KT 29/M03 A2996 RMK A01 T02851029  RH  013%=      5-min Rain = 0
KVA1 240302Z 32005KT 28/M03 A2996 RMK A01 T02841028  RH  013%=      5-min Rain = 0
KVA1 240303Z 32005KT 28/M03 A2996 RMK A01 T02841028  RH  013%=      5-min Rain = 0
KVA1 240304Z 32006KT 28/M03 A2996 RMK A01 T02841028  RH  013%=      5-min Rain = 0
KVA1 240305Z 33005KT 28/M03 A2996 RMK A01 T02841028  RH  013%=      5-min Rain = 0
KVA1 240306Z 33004KT 28/M03 A2996 RMK A01 T02841028  RH  013%=      5-min Rain = 0
KVA1 240307Z 33005KT 28/M03 A2996 RMK A01 T02831028  RH  013%=      5-min Rain = 0
KVA1 240308Z 33005KT 28/M03 A2996 RMK A01 T02831028  RH  013%=      5-min Rain = 0
KVA1 240309Z 33005KT 28/M03 A2996 RMK A01 T02821028  RH  013%=      5-min Rain = 0
KVA1 240310Z 32005KT 28/M03 A2996 RMK A01 T02821028  RH  013%=      5-min Rain = 0
KVA1 240311Z 32005KT 28/M03 A2996 RMK A01 T02821027  RH  013%=      5-min Rain = 0
KVA1 240312Z 33005KT 28/M03 A2996 RMK A01 T02801027  RH  013%=      5-min Rain = 0
KVA1 240313Z 32005KT 28/M03 A2996 RMK A01 T02781028  RH  013%=      5-min Rain = 0
KVA1 240314Z 32006KT 28/M03 A2996 RMK A01 T02771028  RH  013%=      5-min Rain = 0
KVA1 240315Z 33006KT 28/M03 A2996 RMK A01 T02771027  RH  013%=      5-min Rain = 0
KVA1 240316Z 33006KT 28/M03 A2996 RMK A01 T02761027  RH  014%=      5-min Rain = 0
KVA1 240317Z 33006KT 28/M03 A2996 RMK A01 T02761027  RH  014%=      5-min Rain = 0
KVA1 240318Z 33006KT 28/M03 A2996 RMK A01 T02751028  RH  014%=      5-min Rain = 0
KVA1 240319Z 32006KT 28/M03 A2996 RMK A01 T02751027  RH  014%=      5-min Rain = 0
KVA1 240320Z 32005KT 28/M03 A2996 RMK A01 T02751027  RH  014%=      5-min Rain = 0
KVA1 240321Z 32005KT 27/M03 A2996 RMK A01 T02741027  RH  014%=      5-min Rain = 0
KVA1 240322Z 32005KT 27/M03 A2996 RMK A01 T02741026  RH  014%=      5-min Rain = 0
KVA1 240323Z 32005KT 27/M03 A2996 RMK A01 T02721027  RH  014%=      5-min Rain = 0
KVA1 240324Z 31004KT 27/M03 A2996 RMK A01 T02711027  RH  014%=      5-min Rain = 0
KVA1 240325Z 31004KT 27/M03 A2996 RMK A01 T02701027  RH  014%=      5-min Rain = 0
KVA1 240326Z 31005KT 27/M03 A2996 RMK A01 T02691027  RH  014%=      5-min Rain = 0
KVA1 240327Z 31005KT 27/M03 A2996 RMK A01 T02681027  RH  014%=      5-min Rain = 0
KVA1 240328Z 31005KT 27/M03 A2996 RMK A01 T02671027  RH  014%=      5-min Rain = 0
KVA1 240329Z 31006KT 27/M03 A2996 RMK A01 T02671027  RH  014%=      5-min Rain = 0
KVA1 240330Z 30005KT 27/M03 A2997 RMK A01 T02661026  RH  014%=      5-min Rain = 0
KVA1 240331Z 30005KT 27/M03 A2997 RMK A01 T02661027  RH  014%=      5-min Rain = 0
KVA1 240332Z 30005KT 27/M03 A2997 RMK A01 T02651027  RH  014%=      5-min Rain = 0
KVA1 240333Z 30005KT 26/M03 A2997 RMK A01 T02641027  RH  015%=      5-min Rain = 0
KVA1 240334Z 30004KT 26/M03 A2997 RMK A01 T02631027  RH  015%=      5-min Rain = 0
KVA1 240335Z 29004KT 26/M03 A2997 RMK A01 T02621028  RH  015%=      5-min Rain = 0
KVA1 240336Z 30004KT 26/M03 A2997 RMK A01 T02601029  RH  015%=      5-min Rain = 0
KVA1 240337Z 30004KT 26/M03 A2997 RMK A01 T02591030  RH  015%=      5-min Rain = 0
KVA1 240338Z 30004KT 26/M03 A2997 RMK A01 T02571030  RH  015%=      5-min Rain = 0
KVA1 240339Z 30005KT 26/M03 A2997 RMK A01 T02551030  RH  015%=      5-min Rain = 0
KVA1 240340Z 30005KT 25/M03 A2997 RMK A01 T02531030  RH  015%=      5-min Rain = 0
KVA1 240341Z 30005KT 25/M03 A2997 RMK A01 T02511031  RH  015%=      5-min Rain = 0
KVA1 240342Z 30005KT 25/M03 A2997 RMK A01 T02491031  RH  015%=      5-min Rain = 0
KVA1 240343Z 30005KT 25/M03 A2997 RMK A01 T02481031  RH  016%=      5-min Rain = 0
KVA1 240344Z 31006KT 25/M03 A2997 RMK A01 T02461031  RH  016%=      5-min Rain = 0
KVA1 240345Z 31006KT 25/M03 A2997 RMK A01 T02461029  RH  016%=      5-min Rain = 0
KVA1 240346Z 31006KT 25/M03 A2997 RMK A01 T02451029  RH  016%=      5-min Rain = 0
KVA1 240347Z 31006KT 25/M03 A2997 RMK A01 T02451028  RH  016%=      5-min Rain = 0
KVA1 240348Z 31006KT 25/M03 A2997 RMK A01 T02451027  RH  016%=      5-min Rain = 0
KVA1 240349Z 31006KT 25/M03 A2997 RMK A01 T02451027  RH  016%=      5-min Rain = 0
KVA1 240350Z 31006KT 25/M03 A2997 RMK A01 T02451027  RH  016%=      5-min Rain = 0
KVA1 240351Z 31006KT 25/M03 A2997 RMK A01 T02451027  RH  016%=      5-min Rain = 0
KVA1 240352Z 31006KT 25/M03 A2997 RMK A01 T02451027  RH  016%=      5-min Rain = 0
KVA1 240353Z 31006KT 25/M03 A2997 RMK A01 T02451027  RH  016%=      5-min Rain = 0
KVA1 240354Z 31006KT 24/M03 A2997 RMK A01 T02441027  RH  016%=      5-min Rain = 0
KVA1 240355Z 31005KT 24/M03 A2997 RMK A01 T02431028  RH  016%=      5-min Rain = 0
KVA1 240356Z 31006KT 24/M03 A2997 RMK A01 T02421028  RH  016%=      5-min Rain = 0
KVA1 240357Z 31006KT 24/M03 A2997 RMK A01 T02421027  RH  017%=      5-min Rain = 0
KVA1 240358Z 32007KT 24/M03 A2997 RMK A01 T02421027  RH  017%=      5-min Rain = 0
KVA1 240359Z 31006KT 24/M03 A2997 RMK A01 T02421027  RH  017%=      5-min Rain = 0
KVA1 240400Z 30005KT 24/M03 A2997 RMK A01 T02431026  RH  017%=      5-min Rain = 0
KVA1 240401Z 29005KT 24/M03 A2998 RMK A01 T02441027  RH  016%=      5-min Rain = 0
KVA1 240402Z 30006KT 24/M03 A2998 RMK A01 T02431029  RH  016%=      5-min Rain = 0
KVA1 240403Z 29005KT 24/M03 A2998 RMK A01 T02431029  RH  016%=      5-min Rain = 0
KVA1 240404Z 30005KT 24/M03 A2998 RMK A01 T02431029  RH  016%=      5-min Rain = 0
KVA1 240405Z 30005KT 24/M03 A2998 RMK A01 T02421029  RH  016%=      5-min Rain = 0
KVA1 240406Z 30004KT 24/M03 A2998 RMK A01 T02411029  RH  016%=      5-min Rain = 0
KVA1 240407Z 31005KT 24/M03 A2998 RMK A01 T02411029  RH  016%=      5-min Rain = 0
KVA1 240408Z 30004KT 24/M03 A2998 RMK A01 T02401029  RH  017%=      5-min Rain = 0
KVA1 240409Z 29005KT 24/M03 A2998 RMK A01 T02391029  RH  017%=      5-min Rain = 0
KVA1 240410Z 29006KT 24/M03 A2998 RMK A01 T02381029  RH  017%=      5-min Rain = 0
KVA1 240411Z 30005KT 24/M03 A2998 RMK A01 T02371029  RH  017%=      5-min Rain = 0
KVA1 240412Z 29006KT 24/M03 A2998 RMK A01 T02371029  RH  017%=      5-min Rain = 0
KVA1 240413Z 29005KT 24/M03 A2998 RMK A01 T02371029  RH  017%=      5-min Rain = 0
KVA1 240414Z 30005KT 24/M03 A2998 RMK A01 T02361030  RH  017%=      5-min Rain = 0
KVA1 240415Z 29006KT 24/M03 A2998 RMK A01 T02361029  RH  017%=      5-min Rain = 0
KVA1 240416Z 28006KT 24/M03 A2998 RMK A01 T02361029  RH  017%=      5-min Rain = 0
KVA1 240417Z 28006KT 24/M03 A2998 RMK A01 T02361029  RH  017%=      5-min Rain = 0
KVA1 240418Z 28006KT 24/M03 A2998 RMK A01 T02371029  RH  017%=      5-min Rain = 0
KVA1 240419Z 28006KT 24/M03 A2998 RMK A01 T02371029  RH  017%=      5-min Rain = 0
KVA1 240420Z 28006KT 24/M03 A2998 RMK A01 T02371028  RH  017%=      5-min Rain = 0
KVA1 240421Z 28005KT 24/M03 A2998 RMK A01 T02371029  RH  017%=      5-min Rain = 0
KVA1 240422Z 28005KT 24/M03 A2998 RMK A01 T02371028  RH  017%=      5-min Rain = 0
KVA1 240423Z 28005KT 24/M03 A2998 RMK A01 T02381028  RH  017%=      5-min Rain = 0
KVA1 240424Z 28006KT 24/M03 A2998 RMK A01 T02371028  RH  017%=      5-min Rain = 0
KVA1 240425Z 28006KT 24/M03 A2998 RMK A01 T02371028  RH  017%=      5-min Rain = 0
KVA1 240426Z 28006KT 24/M03 A2998 RMK A01 T02371027  RH  017%=      5-min Rain = 0
KVA1 240427Z 28006KT 24/M03 A2998 RMK A01 T02371028  RH  017%=      5-min Rain = 0
KVA1 240428Z 28006KT 24/M03 A2998 RMK A01 T02371028  RH  017%=      5-min Rain = 0
KVA1 240429Z 28005KT 24/M03 A2998 RMK A01 T02371028  RH  017%=      5-min Rain = 0
KVA1 240430Z 27005KT 24/M03 A2998 RMK A01 T02361028  RH  017%=      5-min Rain = 0
KVA1 240431Z 27005KT 24/M03 A2998 RMK A01 T02361028  RH  017%=      5-min Rain = 0
KVA1 240432Z 28005KT 24/M03 A2998 RMK A01 T02351028  RH  017%=      5-min Rain = 0
KVA1 240433Z 28005KT 24/M03 A2998 RMK A01 T02361027  RH  017%=      5-min Rain = 0
KVA1 240434Z 27005KT 24/M03 A2998 RMK A01 T02351028  RH  017%=      5-min Rain = 0
KVA1 240435Z 27005KT 24/M03 A2998 RMK A01 T02351028  RH  017%=      5-min Rain = 0
KVA1 240436Z 27005KT 24/M03 A2998 RMK A01 T02351028  RH  017%=      5-min Rain = 0
KVA1 240437Z 27006KT 23/M03 A2998 RMK A01 T02341028  RH  017%=      5-min Rain = 0
KVA1 240438Z 28006KT 23/M03 A2998 RMK A01 T02331028  RH  017%=      5-min Rain = 0
KVA1 240439Z 28006KT 23/M03 A2998 RMK A01 T02321028  RH  017%=      5-min Rain = 0
KVA1 240440Z 28006KT 23/M03 A2998 RMK A01 T02321027  RH  018%=      5-min Rain = 0
KVA1 240441Z 28007KT 23/M03 A2998 RMK A01 T02321028  RH  018%=      5-min Rain = 0
KVA1 240442Z 28006KT 23/M03 A2998 RMK A01 T02331028  RH  017%=      5-min Rain = 0
KVA1 240443Z 28006KT 23/M03 A2998 RMK A01 T02331027  RH  017%=      5-min Rain = 0
KVA1 240444Z 28006KT 23/M03 A2998 RMK A01 T02341028  RH  017%=      5-min Rain = 0
KVA1 240445Z 28006KT 24/M03 A2998 RMK A01 T02351028  RH  017%=      5-min Rain = 0
KVA1 240446Z 28006KT 24/M03 A2998 RMK A01 T02351028  RH  017%=      5-min Rain = 0
KVA1 240447Z 28006KT 23/M03 A2998 RMK A01 T02341028  RH  017%=      5-min Rain = 0
KVA1 240448Z 28006KT 23/M03 A2998 RMK A01 T02321028  RH  017%=      5-min Rain = 0
KVA1 240449Z 28006KT 23/M03 A2998 RMK A01 T02311028  RH  018%=      5-min Rain = 0
KVA1 240450Z 29006KT 23/M03 A2998 RMK A01 T02301028  RH  018%=      5-min Rain = 0
KVA1 240451Z 28006KT 23/M03 A2998 RMK A01 T02301027  RH  018%=      5-min Rain = 0
KVA1 240452Z 28006KT 23/M03 A2998 RMK A01 T02291028  RH  018%=      5-min Rain = 0
KVA1 240453Z 28006KT 23/M03 A2998 RMK A01 T02291027  RH  018%=      5-min Rain = 0
KVA1 240454Z 29005KT 23/M03 A2998 RMK A01 T02281028  RH  018%=      5-min Rain = 0
KVA1 240455Z 29005KT 23/M03 A2998 RMK A01 T02271028  RH  018%=      5-min Rain = 0
KVA1 240456Z 29005KT 23/M03 A2998 RMK A01 T02271028  RH  018%=      5-min Rain = 0
KVA1 240457Z 29006KT 23/M03 A2998 RMK A01 T02271027  RH  018%=      5-min Rain = 0
KVA1 240458Z 29006KT 23/M03 A2998 RMK A01 T02271028  RH  018%=      5-min Rain = 0
KVA1 240459Z 29006KT 23/M03 A2998 RMK A01 T02261027  RH  018%=      5-min Rain = 0

Page generated in 0.079 seconds.